Wetterdaten: Freitag, 27.02.2015
Datum Zeit Temp. Aussen +5cm Feuchte Auss Luftdruck Regen Sonnenschein Regendauer Solar Windben
27.02.2015 00:00 6,2 C 5,0 C 98 % 1008,0 hPa 0,2 l/m 0 min 2 min 0 W/m 12,6 km/h (3 Bft)
27.02.2015 00:02 6,2 C 5,0 C 98 % 1008,0 hPa 0,0 l/m 0 min 2 min 0 W/m 14,6 km/h (3 Bft)
27.02.2015 00:06 6,2 C 5,0 C 98 % 1007,9 hPa 0,0 l/m 0 min 2 min 0 W/m 14,6 km/h (3 Bft)
27.02.2015 00:08 6,2 C 5,0 C 98 % 1007,9 hPa 0,0 l/m 0 min 2 min 0 W/m 8,4 km/h (2 Bft)
27.02.2015 00:10 6,1 C 5,0 C 98 % 1007,9 hPa 0,0 l/m 0 min 2 min 0 W/m 14,6 km/h (3 Bft)
27.02.2015 00:12 6,1 C 5,0 C 98 % 1007,9 hPa 0,2 l/m 0 min 2 min 0 W/m 12,6 km/h (3 Bft)
27.02.2015 00:14 6,1 C 5,0 C 98 % 1007,9 hPa 0,0 l/m 0 min 2 min 0 W/m 10,5 km/h (2 Bft)
27.02.2015 00:16 6,1 C 5,0 C 98 % 1007,9 hPa 0,0 l/m 0 min 2 min 0 W/m 12,6 km/h (3 Bft)
27.02.2015 00:18 6,1 C 5,0 C 98 % 1007,9 hPa 0,2 l/m 0 min 2 min 0 W/m 12,6 km/h (3 Bft)
27.02.2015 00:20 6,1 C 5,0 C 98 % 1007,9 hPa 0,0 l/m 0 min 2 min 0 W/m 10,5 km/h (2 Bft)
27.02.2015 00:22 6,1 C 5,0 C 98 % 1007,8 hPa 0,0 l/m 0 min 2 min 0 W/m 14,6 km/h (3 Bft)
27.02.2015 00:24 6,1 C 5,0 C 98 % 1007,8 hPa 0,2 l/m 0 min 2 min 0 W/m 14,6 km/h (3 Bft)
27.02.2015 00:26 6,1 C 5,0 C 98 % 1007,8 hPa 0,0 l/m 0 min 2 min 0 W/m 8,4 km/h (2 Bft)
27.02.2015 00:28 6,1 C 5,0 C 98 % 1007,8 hPa 0,0 l/m 0 min 2 min 0 W/m 12,6 km/h (3 Bft)
27.02.2015 00:30 6,1 C 5,0 C 98 % 1007,7 hPa 0,0 l/m 0 min 2 min 0 W/m 12,6 km/h (3 Bft)
27.02.2015 00:32 6,1 C 5,0 C 98 % 1007,7 hPa 0,2 l/m 0 min 2 min 0 W/m 8,4 km/h (2 Bft)
27.02.2015 00:34 6,1 C 5,0 C 98 % 1007,7 hPa 0,0 l/m 0 min 2 min 0 W/m 12,6 km/h (3 Bft)
27.02.2015 00:36 6,1 C 5,0 C 98 % 1007,7 hPa 0,0 l/m 0 min 2 min 0 W/m 10,5 km/h (2 Bft)
27.02.2015 00:38 6,1 C 5,0 C 98 % 1007,7 hPa 0,0 l/m 0 min 2 min 0 W/m 14,6 km/h (3 Bft)
27.02.2015 00:40 6,1 C 5,0 C 98 % 1007,7 hPa 0,0 l/m 0 min 2 min 0 W/m 12,6 km/h (3 Bft)
27.02.2015 00:42 6,1 C 5,0 C 98 % 1007,7 hPa 0,0 l/m 0 min 2 min 0 W/m 12,6 km/h (3 Bft)
27.02.2015 00:44 6,1 C 5,0 C 98 % 1007,7 hPa 0,2 l/m 0 min 2 min 0 W/m 12,6 km/h (3 Bft)
27.02.2015 00:46 6,1 C 5,0 C 98 % 1007,7 hPa 0,0 l/m 0 min 2 min 0 W/m 10,5 km/h (2 Bft)
27.02.2015 00:48 6,1 C 5,0 C 98 % 1007,7 hPa 0,0 l/m 0 min 2 min 0 W/m 14,6 km/h (3 Bft)
27.02.2015 00:50 6,1 C 5,0 C 98 % 1007,6 hPa 0,0 l/m 0 min 2 min 0 W/m 12,6 km/h (3 Bft)
27.02.2015 00:52 6,1 C 5,0 C 98 % 1007,6 hPa 0,0 l/m 0 min 2 min 0 W/m 12,6 km/h (3 Bft)
27.02.2015 00:54 6,1 C 5,0 C 98 % 1007,7 hPa 0,0 l/m 0 min 2 min 0 W/m 16,7 km/h (3 Bft)
27.02.2015 00:56 6,1 C 5,0 C 98 % 1007,5 hPa 0,2 l/m 0 min 2 min 0 W/m 14,6 km/h (3 Bft)
27.02.2015 00:58 6,1 C 5,0 C 98 % 1007,5 hPa 0,0 l/m 0 min 2 min 0 W/m 12,6 km/h (3 Bft)
27.02.2015 01:00 6,1 C 5,0 C 98 % 1007,5 hPa 0,0 l/m 0 min 2 min 0 W/m 16,7 km/h (3 Bft)
27.02.2015 01:02 6,1 C 5,0 C 98 % 1007,5 hPa 0,2 l/m 0 min 2 min 0 W/m 12,6 km/h (3 Bft)
27.02.2015 01:04 6,1 C 5,0 C 98 % 1007,4 hPa 0,0 l/m 0 min 2 min 0 W/m 16,7 km/h (3 Bft)
27.02.2015 01:06 6,1 C 5,0 C 98 % 1007,5 hPa 0,0 l/m 0 min 2 min 0 W/m 14,6 km/h (3 Bft)
27.02.2015 01:08 6,1 C 5,0 C 98 % 1007,5 hPa 0,0 l/m 0 min 2 min 0 W/m 16,7 km/h (3 Bft)
27.02.2015 01:10 6,1 C 5,0 C 98 % 1007,3 hPa 0,0 l/m 0 min 2 min 0 W/m 10,5 km/h (2 Bft)
27.02.2015 01:12 6,1 C 5,0 C 98 % 1007,4 hPa 0,0 l/m 0 min 2 min 0 W/m 14,6 km/h (3 Bft)
27.02.2015 01:14 6,1 C 5,0 C 98 % 1007,3 hPa 0,0 l/m 0 min 2 min 0 W/m 12,6 km/h (3 Bft)
27.02.2015 01:16 6,1 C 5,0 C 98 % 1007,3 hPa 0,0 l/m 0 min 2 min 0 W/m 14,6 km/h (3 Bft)
27.02.2015 01:18 6,1 C 5,0 C 98 % 1007,3 hPa 0,2 l/m 0 min 2 min 0 W/m 10,5 km/h (2 Bft)
27.02.2015 01:20 6,1 C 5,0 C 98 % 1007,3 hPa 0,0 l/m 0 min 2 min 0 W/m 12,6 km/h (3 Bft)
27.02.2015 01:22 6,1 C 5,0 C 98 % 1007,3 hPa 0,0 l/m 0 min 2 min 0 W/m 14,6 km/h (3 Bft)
27.02.2015 01:24 6,1 C 5,0 C 98 % 1007,3 hPa 0,0 l/m 0 min 2 min 0 W/m 10,5 km/h (2 Bft)
27.02.2015 01:26 6,1 C 5,0 C 98 % 1007,3 hPa 0,0 l/m 0 min 2 min 0 W/m 12,6 km/h (3 Bft)
27.02.2015 01:28 6,1 C 5,0 C 98 % 1007,2 hPa 0,0 l/m 0 min 2 min 0 W/m 10,5 km/h (2 Bft)
27.02.2015 01:30 6,1 C 5,0 C 98 % 1007,3 hPa 0,0 l/m 0 min 0 min 0 W/m 12,6 km/h (3 Bft)
27.02.2015 01:32 6,1 C 5,0 C 98 % 1007,3 hPa 0,0 l/m 0 min 0 min 0 W/m 10,5 km/h (2 Bft)
27.02.2015 01:34 6,1 C 5,0 C 98 % 1007,3 hPa 0,0 l/m 0 min 2 min 0 W/m 10,5 km/h (2 Bft)
27.02.2015 01:36 6,1 C 5,0 C 98 % 1007,3 hPa 0,2 l/m 0 min 2 min 0 W/m 10,5 km/h (2 Bft)
27.02.2015 01:38 6,1 C 5,0 C 98 % 1007,3 hPa 0,0 l/m 0 min 0 min 0 W/m 12,6 km/h (3 Bft)
27.02.2015 01:40 6,1 C 5,0 C 98 % 1007,4 hPa 0,0 l/m 0 min 2 min 0 W/m 8,4 km/h (2 Bft)
27.02.2015 01:42 6,1 C 5,0 C 98 % 1007,4 hPa 0,0 l/m 0 min 0 min 0 W/m 10,5 km/h (2 Bft)
27.02.2015 01:44 6,1 C 5,0 C 98 % 1007,3 hPa 0,0 l/m 0 min 2 min 0 W/m 12,6 km/h (3 Bft)
27.02.2015 01:46 6,1 C 5,0 C 98 % 1007,3 hPa 0,0 l/m 0 min 2 min 0 W/m 10,5 km/h (2 Bft)
27.02.2015 01:48 6,1 C 5,0 C 98 % 1007,3 hPa 0,0 l/m 0 min 2 min 0 W/m 8,4 km/h (2 Bft)
27.02.2015 01:50 6,1 C 5,0 C 98 % 1007,3 hPa 0,0 l/m 0 min 2 min 0 W/m 12,6 km/h (3 Bft)
27.02.2015 01:52 6,1 C 5,0 C 98 % 1007,3 hPa 0,0 l/m 0 min 2 min 0 W/m 10,5 km/h (2 Bft)
27.02.2015 01:54 6,0 C 5,0 C 98 % 1007,3 hPa 0,2 l/m 0 min 2 min 0 W/m 8,4 km/h (2 Bft)
27.02.2015 01:56 6,1 C 5,0 C 98 % 1007,3 hPa 0,0 l/m 0 min 2 min 0 W/m 12,6 km/h (3 Bft)
27.02.2015 01:58 6,0 C 5,0 C 98 % 1007,3 hPa 0,0 l/m 0 min 2 min 0 W/m 10,5 km/h (2 Bft)
27.02.2015 02:00 6,0 C 5,0 C 98 % 1007,3 hPa 0,0 l/m 0 min 2 min 0 W/m 8,4 km/h (2 Bft)
27.02.2015 02:02 6,1 C 5,0 C 98 % 1007,3 hPa 0,0 l/m 0 min 2 min 0 W/m 8,4 km/h (2 Bft)
27.02.2015 02:04 6,0 C 5,0 C 98 % 1007,3 hPa 0,2 l/m 0 min 2 min 0 W/m 10,5 km/h (2 Bft)
27.02.2015 02:06 6,1 C 5,0 C 98 % 1007,4 hPa 0,0 l/m 0 min 2 min 0 W/m 10,5 km/h (2 Bft)
27.02.2015 02:08 6,0 C 5,0 C 98 % 1007,4 hPa 0,0 l/m 0 min 2 min 0 W/m 8,4 km/h (2 Bft)
27.02.2015 02:10 6,1 C 5,0 C 98 % 1007,4 hPa 0,0 l/m 0 min 2 min 0 W/m 6,3 km/h (2 Bft)
27.02.2015 02:12 6,1 C 5,0 C 98 % 1007,4 hPa 0,0 l/m 0 min 2 min 0 W/m 8,4 km/h (2 Bft)
27.02.2015 02:14 6,1 C 5,0 C 98 % 1007,4 hPa 0,2 l/m 0 min 2 min 0 W/m 10,5 km/h (2 Bft)
27.02.2015 02:16 6,1 C 5,0 C 98 % 1007,3 hPa 0,0 l/m 0 min 2 min 0 W/m 18,8 km/h (3 Bft)
27.02.2015 02:18 6,1 C 5,0 C 98 % 1007,3 hPa 0,2 l/m 0 min 2 min 0 W/m 8,4 km/h (2 Bft)
27.02.2015 02:20 6,1 C 5,0 C 98 % 1007,3 hPa 0,0 l/m 0 min 2 min 0 W/m 10,5 km/h (2 Bft)
27.02.2015 02:22 6,1 C 5,0 C 98 % 1007,3 hPa 0,0 l/m 0 min 2 min 0 W/m 12,6 km/h (3 Bft)
27.02.2015 02:24 6,1 C 5,0 C 98 % 1007,4 hPa 0,0 l/m 0 min 2 min 0 W/m 12,6 km/h (3 Bft)
27.02.2015 02:26 6,1 C 5,0 C 98 % 1007,3 hPa 0,2 l/m 0 min 2 min 0 W/m 10,5 km/h (2 Bft)
27.02.2015 02:28 6,1 C 5,0 C 98 % 1007,3 hPa 0,0 l/m 0 min 2 min 0 W/m 10,5 km/h (2 Bft)
27.02.2015 02:30 6,1 C 5,0 C 98 % 1007,3 hPa 0,0 l/m 0 min 2 min 0 W/m 12,6 km/h (3 Bft)
27.02.2015 02:32 6,1 C 5,0 C 98 % 1007,3 hPa 0,2 l/m 0 min 2 min 0 W/m 8,4 km/h (2 Bft)
27.02.2015 02:34 6,1 C 5,0 C 98 % 1007,3 hPa 0,0 l/m 0 min 2 min 0 W/m 8,4 km/h (2 Bft)
27.02.2015 02:36 6,1 C 5,0 C 98 % 1007,3 hPa 0,0 l/m 0 min 2 min 0 W/m 8,4 km/h (2 Bft)
27.02.2015 02:38 6,1 C 5,0 C 98 % 1007,3 hPa 0,0 l/m 0 min 2 min 0 W/m 6,3 km/h (2 Bft)
27.02.2015 02:40 6,1 C 5,0 C 98 % 1007,3 hPa 0,0 l/m 0 min 2 min 0 W/m 4,2 km/h (1 Bft)
27.02.2015 02:42 6,1 C 5,0 C 98 % 1007,3 hPa 0,0 l/m 0 min 2 min 0 W/m 2,1 km/h (1 Bft)
27.02.2015 02:44 6,1 C 5,0 C 98 % 1007,3 hPa 0,2 l/m 0 min 2 min 0 W/m 4,2 km/h (1 Bft)
27.02.2015 02:46 6,0 C 5,0 C 98 % 1007,3 hPa 0,0 l/m 0 min 2 min 0 W/m 4,2 km/h (1 Bft)
27.02.2015 02:48 6,0 C 5,0 C 98 % 1007,3 hPa 0,0 l/m 0 min 2 min 0 W/m 4,2 km/h (1 Bft)
27.02.2015 02:50 6,1 C 5,0 C 98 % 1007,4 hPa 0,2 l/m 0 min 2 min 0 W/m 6,3 km/h (2 Bft)
27.02.2015 02:52 6,0 C 5,0 C 98 % 1007,3 hPa 0,0 l/m 0 min 2 min 0 W/m 6,3 km/h (2 Bft)
27.02.2015 02:54 6,0 C 5,0 C 98 % 1007,3 hPa 0,0 l/m 0 min 2 min 0 W/m 8,4 km/h (2 Bft)
27.02.2015 02:56 6,1 C 5,0 C 98 % 1007,4 hPa 0,0 l/m 0 min 2 min 0 W/m 8,4 km/h (2 Bft)
27.02.2015 02:58 6,1 C 5,0 C 98 % 1007,4 hPa 0,2 l/m 0 min 2 min 0 W/m 8,4 km/h (2 Bft)
27.02.2015 03:00 6,1 C 5,0 C 98 % 1007,4 hPa 0,0 l/m 0 min 2 min 0 W/m 8,4 km/h (2 Bft)
27.02.2015 03:02 6,1 C 5,0 C 98 % 1007,4 hPa 0,2 l/m 0 min 2 min 0 W/m 6,3 km/h (2 Bft)
27.02.2015 03:04 6,1 C 5,0 C 98 % 1007,5 hPa 0,0 l/m 0 min 2 min 0 W/m 6,3 km/h (2 Bft)
27.02.2015 03:06 6,1 C 5,0 C 98 % 1007,5 hPa 0,0 l/m 0 min 2 min 0 W/m 4,2 km/h (1 Bft)
27.02.2015 03:08 6,1 C 5,0 C 98 % 1007,5 hPa 0,0 l/m 0 min 2 min 0 W/m 4,2 km/h (1 Bft)
27.02.2015 03:10 6,1 C 5,0 C 98 % 1007,5 hPa 0,0 l/m 0 min 2 min 0 W/m 2,1 km/h (1 Bft)
27.02.2015 03:12 6,1 C 5,0 C 98 % 1007,6 hPa 0,0 l/m 0 min 2 min 0 W/m 4,2 km/h (1 Bft)
27.02.2015 03:14 6,1 C 5,0 C 98 % 1007,6 hPa 0,2 l/m 0 min 2 min 0 W/m 2,1 km/h (1 Bft)
27.02.2015 03:16 6,1 C 5,0 C 98 % 1007,6 hPa 0,0 l/m 0 min 2 min 0 W/m 10,5 km/h (2 Bft)
27.02.2015 03:18 6,1 C 5,0 C 98 % 1007,6 hPa 0,2 l/m 0 min 2 min 0 W/m 8,4 km/h (2 Bft)
27.02.2015 03:20 6,1 C 5,0 C 98 % 1007,6 hPa 0,0 l/m 0 min 2 min 0 W/m 8,4 km/h (2 Bft)
27.02.2015 03:22 6,1 C 5,0 C 98 % 1007,6 hPa 0,0 l/m 0 min 2 min 0 W/m 14,6 km/h (3 Bft)
27.02.2015 03:24 6,1 C 5,0 C 98 % 1007,7 hPa 0,0 l/m 0 min 2 min 0 W/m 23,0 km/h (4 Bft)
27.02.2015 03:26 6,1 C 4,4 C 98 % 1007,8 hPa 0,2 l/m 0 min 2 min 0 W/m 46,0 km/h (6 Bft)
27.02.2015 03:28 5,9 C 4,4 C 98 % 1007,8 hPa 0,0 l/m 0 min 2 min 0 W/m 50,2 km/h (7 Bft)
27.02.2015 03:30 5,8 C 3,9 C 98 % 1007,8 hPa 0,2 l/m 0 min 2 min 0 W/m 37,7 km/h (5 Bft)
27.02.2015 03:32 5,7 C 3,9 C 98 % 1007,8 hPa 0,0 l/m 0 min 0 min 0 W/m 37,7 km/h (5 Bft)
27.02.2015 03:34 5,6 C 3,9 C 98 % 1007,9 hPa 0,0 l/m 0 min 2 min 0 W/m 35,6 km/h (5 Bft)
27.02.2015 03:36 5,4 C 3,9 C 98 % 1007,9 hPa 0,0 l/m 0 min 2 min 0 W/m 39,7 km/h (6 Bft)
27.02.2015 03:38 5,3 C 3,9 C 98 % 1008,0 hPa 0,2 l/m 0 min 2 min 0 W/m 33,5 km/h (5 Bft)
27.02.2015 03:40 5,3 C 3,9 C 98 % 1008,0 hPa 0,0 l/m 0 min 2 min 0 W/m 39,7 km/h (6 Bft)
27.02.2015 03:42 5,2 C 3,9 C 98 % 1007,9 hPa 0,0 l/m 0 min 2 min 0 W/m 41,8 km/h (6 Bft)
27.02.2015 03:44 5,1 C 3,9 C 98 % 1008,0 hPa 0,0 l/m 0 min 2 min 0 W/m 29,3 km/h (5 Bft)
27.02.2015 03:46 5,1 C 3,9 C 98 % 1008,0 hPa 0,0 l/m 0 min 2 min 0 W/m 39,7 km/h (6 Bft)
27.02.2015 03:48 5,1 C 3,9 C 98 % 1008,1 hPa 0,2 l/m 0 min 2 min 0 W/m 27,2 km/h (4 Bft)
27.02.2015 03:50 5,0 C 3,9 C 98 % 1008,1 hPa 0,0 l/m 0 min 2 min 0 W/m 27,2 km/h (4 Bft)
27.02.2015 03:52 5,0 C 3,9 C 98 % 1008,2 hPa 0,0 l/m 0 min 2 min 0 W/m 33,5 km/h (5 Bft)
27.02.2015 03:54 5,0 C 3,9 C 98 % 1008,2 hPa 0,0 l/m 0 min 2 min 0 W/m 35,6 km/h (5 Bft)
27.02.2015 03:56 5,0 C 3,9 C 98 % 1008,2 hPa 0,0 l/m 0 min 2 min 0 W/m 27,2 km/h (4 Bft)
27.02.2015 03:58 4,9 C 3,9 C 98 % 1008,2 hPa 0,0 l/m 0 min 2 min 0 W/m 27,2 km/h (4 Bft)
27.02.2015 04:00 4,9 C 3,3 C 98 % 1008,2 hPa 0,2 l/m 0 min 2 min 0 W/m 33,5 km/h (5 Bft)
27.02.2015 04:02 4,9 C 3,3 C 98 % 1008,2 hPa 0,0 l/m 0 min 2 min 0 W/m 20,9 km/h (4 Bft)
27.02.2015 04:04 4,9 C 3,3 C 98 % 1008,3 hPa 0,0 l/m 0 min 2 min 0 W/m 29,3 km/h (5 Bft)
27.02.2015 04:06 4,9 C 3,3 C 98 % 1008,3 hPa 0,0 l/m 0 min 2 min 0 W/m 29,3 km/h (5 Bft)
27.02.2015 04:08 4,9 C 3,3 C 98 % 1008,3 hPa 0,2 l/m 0 min 2 min 0 W/m 23,0 km/h (4 Bft)
27.02.2015 04:10 4,8 C 3,3 C 98 % 1008,3 hPa 0,0 l/m 0 min 2 min 0 W/m 29,3 km/h (5 Bft)
27.02.2015 04:12 4,8 C 3,3 C 98 % 1008,3 hPa 0,0 l/m 0 min 2 min 0 W/m 20,9 km/h (4 Bft)
27.02.2015 04:14 4,8 C 3,3 C 98 % 1008,4 hPa 0,0 l/m 0 min 2 min 0 W/m 20,9 km/h (4 Bft)
27.02.2015 04:16 4,8 C 3,3 C 98 % 1008,3 hPa 0,0 l/m 0 min 2 min 0 W/m 25,1 km/h (4 Bft)
27.02.2015 04:18 4,8 C 3,3 C 98 % 1008,4 hPa 0,0 l/m 0 min 2 min 0 W/m 31,4 km/h (5 Bft)
27.02.2015 04:20 4,7 C 3,3 C 98 % 1008,5 hPa 0,2 l/m 0 min 2 min 0 W/m 29,3 km/h (5 Bft)
27.02.2015 04:22 4,7 C 3,3 C 98 % 1008,6 hPa 0,0 l/m 0 min 2 min 0 W/m 23,0 km/h (4 Bft)
27.02.2015 04:24 4,7 C 3,3 C 98 % 1008,6 hPa 0,0 l/m 0 min 2 min 0 W/m 27,2 km/h (4 Bft)
27.02.2015 04:26 4,7 C 3,3 C 98 % 1008,6 hPa 0,0 l/m 0 min 2 min 0 W/m 33,5 km/h (5 Bft)
27.02.2015 04:28 4,6 C 3,3 C 98 % 1008,6 hPa 0,2 l/m 0 min 2 min 0 W/m 39,7 km/h (6 Bft)
27.02.2015 04:30 4,6 C 3,3 C 98 % 1008,6 hPa 0,0 l/m 0 min 2 min 0 W/m 31,4 km/h (5 Bft)
27.02.2015 04:32 4,6 C 3,3 C 98 % 1008,8 hPa 0,0 l/m 0 min 2 min 0 W/m 33,5 km/h (5 Bft)
27.02.2015 04:34 4,6 C 3,3 C 98 % 1008,8 hPa 0,0 l/m 0 min 2 min 0 W/m 37,7 km/h (5 Bft)
27.02.2015 04:36 4,5 C 3,3 C 98 % 1008,7 hPa 0,0 l/m 0 min 2 min 0 W/m 29,3 km/h (5 Bft)
27.02.2015 04:38 4,5 C 3,3 C 98 % 1008,6 hPa 0,0 l/m 0 min 2 min 0 W/m 25,1 km/h (4 Bft)
27.02.2015 04:40 4,5 C 3,3 C 98 % 1008,6 hPa 0,0 l/m 0 min 2 min 0 W/m 31,4 km/h (5 Bft)
27.02.2015 04:42 4,4 C 2,8 C 98 % 1008,6 hPa 0,2 l/m 0 min 2 min 0 W/m 31,4 km/h (5 Bft)
27.02.2015 04:44 4,4 C 2,8 C 98 % 1008,7 hPa 0,0 l/m 0 min 2 min 0 W/m 29,3 km/h (5 Bft)
27.02.2015 04:46 4,4 C 2,8 C 98 % 1008,8 hPa 0,0 l/m 0 min 2 min 0 W/m 31,4 km/h (5 Bft)
27.02.2015 04:48 4,4 C 2,8 C 98 % 1008,8 hPa 0,0 l/m 0 min 2 min 0 W/m 27,2 km/h (4 Bft)
27.02.2015 04:50 4,4 C 2,8 C 98 % 1008,8 hPa 0,2 l/m 0 min 2 min 0 W/m 23,0 km/h (4 Bft)
27.02.2015 04:52 4,4 C 2,8 C 98 % 1008,7 hPa 0,0 l/m 0 min 2 min 0 W/m 29,3 km/h (5 Bft)
27.02.2015 04:54 4,4 C 2,8 C 98 % 1008,8 hPa 0,0 l/m 0 min 2 min 0 W/m 29,3 km/h (5 Bft)
27.02.2015 04:56 4,4 C 2,8 C 98 % 1008,9 hPa 0,0 l/m 0 min 2 min 0 W/m 16,7 km/h (3 Bft)
27.02.2015 04:58 4,4 C 2,8 C 98 % 1008,9 hPa 0,0 l/m 0 min 2 min 0 W/m 33,5 km/h (5 Bft)
27.02.2015 05:00 4,4 C 2,8 C 98 % 1008,9 hPa 0,0 l/m 0 min 2 min 0 W/m 25,1 km/h (4 Bft)
27.02.2015 05:02 4,4 C 2,8 C 98 % 1009,0 hPa 0,2 l/m 0 min 2 min 0 W/m 33,5 km/h (5 Bft)
27.02.2015 05:04 4,4 C 2,8 C 98 % 1009,2 hPa 0,0 l/m 0 min 2 min 0 W/m 18,8 km/h (3 Bft)
27.02.2015 05:06 4,4 C 3,3 C 97 % 1009,1 hPa 0,0 l/m 0 min 2 min 0 W/m 31,4 km/h (5 Bft)
27.02.2015 05:08 4,4 C 3,3 C 97 % 1009,1 hPa 0,0 l/m 0 min 2 min 0 W/m 23,0 km/h (4 Bft)
27.02.2015 05:10 4,4 C 3,3 C 97 % 1009,1 hPa 0,0 l/m 0 min 2 min 0 W/m 16,7 km/h (3 Bft)
27.02.2015 05:12 4,4 C 3,3 C 97 % 1009,2 hPa 0,0 l/m 0 min 2 min 0 W/m 25,1 km/h (4 Bft)
27.02.2015 05:14 4,4 C 3,3 C 97 % 1009,2 hPa 0,2 l/m 0 min 2 min 0 W/m 25,1 km/h (4 Bft)
27.02.2015 05:16 4,4 C 3,3 C 97 % 1009,3 hPa 0,0 l/m 0 min 2 min 0 W/m 23,0 km/h (4 Bft)
27.02.2015 05:18 4,4 C 3,3 C 97 % 1009,4 hPa 0,0 l/m 0 min 2 min 0 W/m 18,8 km/h (3 Bft)
27.02.2015 05:20 4,4 C 3,3 C 97 % 1009,4 hPa 0,0 l/m 0 min 2 min 0 W/m 20,9 km/h (4 Bft)
27.02.2015 05:22 4,4 C 3,3 C 97 % 1009,6 hPa 0,2 l/m 0 min 2 min 0 W/m 20,9 km/h (4 Bft)
27.02.2015 05:24 4,5 C 3,3 C 97 % 1009,5 hPa 0,0 l/m 0 min 2 min 0 W/m 20,9 km/h (4 Bft)
27.02.2015 05:26 4,5 C 3,3 C 97 % 1009,5 hPa 0,0 l/m 0 min 2 min 0 W/m 18,8 km/h (3 Bft)
27.02.2015 05:28 4,5 C 3,3 C 97 % 1009,5 hPa 0,0 l/m 0 min 2 min 0 W/m 16,7 km/h (3 Bft)
27.02.2015 05:30 4,5 C 3,3 C 97 % 1009,5 hPa 0,2 l/m 0 min 2 min 0 W/m 20,9 km/h (4 Bft)
27.02.2015 05:32 4,5 C 3,3 C 97 % 1009,5 hPa 0,0 l/m 0 min 2 min 0 W/m 29,3 km/h (5 Bft)
27.02.2015 05:34 4,5 C 3,3 C 97 % 1009,5 hPa 0,0 l/m 0 min 2 min 0 W/m 20,9 km/h (4 Bft)
27.02.2015 05:36 4,5 C 3,3 C 97 % 1009,8 hPa 0,0 l/m 0 min 2 min 0 W/m 23,0 km/h (4 Bft)
27.02.2015 05:38 4,4 C 2,8 C 97 % 1009,8 hPa 0,0 l/m 0 min 2 min 0 W/m 23,0 km/h (4 Bft)
27.02.2015 05:40 4,4 C 2,8 C 97 % 1009,7 hPa 0,2 l/m 0 min 2 min 0 W/m 25,1 km/h (4 Bft)
27.02.2015 05:42 4,4 C 2,8 C 97 % 1009,7 hPa 0,0 l/m 0 min 2 min 0 W/m 31,4 km/h (5 Bft)
27.02.2015 05:44 4,3 C 2,8 C 97 % 1009,8 hPa 0,0 l/m 0 min 2 min 0 W/m 35,6 km/h (5 Bft)
27.02.2015 05:46 4,2 C 2,2 C 97 % 1009,8 hPa 0,0 l/m 0 min 2 min 0 W/m 31,4 km/h (5 Bft)
27.02.2015 05:48 4,1 C 2,2 C 97 % 1009,9 hPa 0,0 l/m 0 min 2 min 0 W/m 37,7 km/h (5 Bft)
27.02.2015 05:50 3,9 C 2,2 C 97 % 1010,0 hPa 0,2 l/m 0 min 2 min 0 W/m 35,6 km/h (5 Bft)
27.02.2015 05:52 3,8 C 2,2 C 97 % 1010,0 hPa 0,0 l/m 0 min 2 min 0 W/m 41,8 km/h (6 Bft)
27.02.2015 05:54 3,7 C 2,2 C 97 % 1010,1 hPa 0,0 l/m 0 min 2 min 0 W/m 37,7 km/h (5 Bft)
27.02.2015 05:56 3,7 C 2,2 C 97 % 1010,1 hPa 0,0 l/m 0 min 2 min 0 W/m 35,6 km/h (5 Bft)
27.02.2015 05:58 3,6 C 2,2 C 97 % 1010,1 hPa 0,0 l/m 0 min 2 min 0 W/m 41,8 km/h (6 Bft)
27.02.2015 06:00 3,6 C 2,2 C 97 % 1010,1 hPa 0,0 l/m 0 min 2 min 0 W/m 25,1 km/h (4 Bft)
27.02.2015 06:02 3,5 C 1,7 C 97 % 1010,2 hPa 0,0 l/m 0 min 2 min 0 W/m 37,7 km/h (5 Bft)
27.02.2015 06:06 3,4 C 1,7 C 96 % 1010,2 hPa 0,2 l/m 0 min 2 min 0 W/m 41,8 km/h (6 Bft)
27.02.2015 06:08 3,4 C 1,7 C 96 % 1010,4 hPa 0,0 l/m 0 min 2 min 0 W/m 37,7 km/h (5 Bft)
27.02.2015 06:10 3,4 C 1,7 C 96 % 1010,3 hPa 0,0 l/m 0 min 2 min 0 W/m 29,3 km/h (5 Bft)
27.02.2015 06:12 3,4 C 2,2 C 96 % 1010,3 hPa 0,0 l/m 0 min 2 min 0 W/m 29,3 km/h (5 Bft)
27.02.2015 06:14 3,4 C 2,2 C 96 % 1010,4 hPa 0,0 l/m 0 min 2 min 0 W/m 27,2 km/h (4 Bft)
27.02.2015 06:16 3,5 C 2,2 C 96 % 1010,4 hPa 0,2 l/m 0 min 2 min 0 W/m 33,5 km/h (5 Bft)
27.02.2015 06:18 3,5 C 2,2 C 96 % 1010,4 hPa 0,0 l/m 0 min 2 min 0 W/m 31,4 km/h (5 Bft)
27.02.2015 06:20 3,5 C 2,2 C 96 % 1010,4 hPa 0,0 l/m 0 min 2 min 0 W/m 29,3 km/h (5 Bft)
27.02.2015 06:22 3,5 C 2,2 C 96 % 1010,4 hPa 0,0 l/m 0 min 2 min 0 W/m 35,6 km/h (5 Bft)
27.02.2015 06:24 3,6 C 2,2 C 96 % 1010,5 hPa 0,0 l/m 0 min 2 min 0 W/m 27,2 km/h (4 Bft)
27.02.2015 06:26 3,6 C 2,2 C 96 % 1010,5 hPa 0,0 l/m 0 min 2 min 0 W/m 29,3 km/h (5 Bft)
27.02.2015 06:28 3,6 C 2,2 C 96 % 1010,6 hPa 0,0 l/m 0 min 2 min 0 W/m 20,9 km/h (4 Bft)
27.02.2015 06:30 3,6 C 2,2 C 96 % 1010,6 hPa 0,0 l/m 0 min 2 min 0 W/m 31,4 km/h (5 Bft)
27.02.2015 06:32 3,6 C 2,2 C 96 % 1010,5 hPa 0,2 l/m 0 min 2 min 0 W/m 27,2 km/h (4 Bft)
27.02.2015 06:34 3,6 C 2,2 C 96 % 1010,5 hPa 0,0 l/m 0 min 2 min 0 W/m 25,1 km/h (4 Bft)
27.02.2015 06:36 3,7 C 2,2 C 96 % 1010,5 hPa 0,0 l/m 0 min 2 min 0 W/m 29,3 km/h (5 Bft)
27.02.2015 06:38 3,7 C 2,2 C 96 % 1010,6 hPa 0,0 l/m 0 min 2 min 0 W/m 23,0 km/h (4 Bft)
27.02.2015 06:40 3,7 C 2,2 C 96 % 1010,6 hPa 0,0 l/m 0 min 2 min 0 W/m 33,5 km/h (5 Bft)
27.02.2015 06:42 3,7 C 2,2 C 96 % 1010,7 hPa 0,0 l/m 0 min 2 min 0 W/m 23,0 km/h (4 Bft)
27.02.2015 06:44 3,7 C 2,2 C 96 % 1010,8 hPa 0,0 l/m 0 min 2 min 0 W/m 16,7 km/h (3 Bft)
27.02.2015 06:46 3,7 C 2,2 C 96 % 1010,9 hPa 0,0 l/m 0 min 2 min 0 W/m 16,7 km/h (3 Bft)
27.02.2015 06:48 3,7 C 2,2 C 96 % 1011,0 hPa 0,0 l/m 0 min 2 min 0 W/m 23,0 km/h (4 Bft)
27.02.2015 06:50 3,7 C 2,2 C 95 % 1010,9 hPa 0,0 l/m 0 min 2 min 0 W/m 20,9 km/h (4 Bft)
27.02.2015 06:52 3,7 C 2,2 C 95 % 1011,0 hPa 0,0 l/m 0 min 2 min 0 W/m 20,9 km/h (4 Bft)
27.02.2015 06:54 3,7 C 2,2 C 95 % 1011,1 hPa 0,0 l/m 0 min 2 min 0 W/m 16,7 km/h (3 Bft)
27.02.2015 06:56 3,7 C 2,2 C 95 % 1011,1 hPa 0,0 l/m 0 min 2 min 0 W/m 18,8 km/h (3 Bft)
27.02.2015 06:58 3,7 C 2,2 C 95 % 1011,1 hPa 0,0 l/m 0 min 0 min 0 W/m 10,5 km/h (2 Bft)
27.02.2015 07:00 3,7 C 2,2 C 95 % 1011,1 hPa 0,0 l/m 0 min 0 min 0 W/m 14,6 km/h (3 Bft)
27.02.2015 07:02 3,7 C 2,2 C 95 % 1011,1 hPa 0,2 l/m 0 min 0 min 0 W/m 16,7 km/h (3 Bft)
27.02.2015 07:04 3,7 C 2,2 C 95 % 1011,1 hPa 0,0 l/m 0 min 2 min 0 W/m 14,6 km/h (3 Bft)
27.02.2015 07:06 3,7 C 2,2 C 95 % 1011,1 hPa 0,0 l/m 0 min 2 min 0 W/m 12,6 km/h (3 Bft)
27.02.2015 07:08 3,7 C 2,2 C 95 % 1011,2 hPa 0,0 l/m 0 min 2 min 0 W/m 10,5 km/h (2 Bft)
27.02.2015 07:10 3,7 C 2,2 C 95 % 1011,2 hPa 0,0 l/m 0 min 2 min 0 W/m 10,5 km/h (2 Bft)
27.02.2015 07:12 3,7 C 2,2 C 95 % 1011,2 hPa 0,0 l/m 0 min 0 min 0 W/m 12,6 km/h (3 Bft)
27.02.2015 07:14 3,7 C 2,2 C 95 % 1011,2 hPa 0,0 l/m 0 min 0 min 0 W/m 8,4 km/h (2 Bft)
27.02.2015 07:16 3,8 C 2,2 C 95 % 1011,3 hPa 0,0 l/m 0 min 0 min 0 W/m 10,5 km/h (2 Bft)
27.02.2015 07:18 3,8 C 2,2 C 95 % 1011,4 hPa 0,0 l/m 0 min 0 min 0 W/m 10,5 km/h (2 Bft)
27.02.2015 07:20 3,8 C 2,2 C 95 % 1011,3 hPa 0,0 l/m 0 min 0 min 0 W/m 12,6 km/h (3 Bft)
27.02.2015 07:22 3,8 C 2,8 C 95 % 1011,4 hPa 0,0 l/m 0 min 0 min 0 W/m 6,3 km/h (2 Bft)
27.02.2015 07:24 3,8 C 2,2 C 95 % 1011,5 hPa 0,0 l/m 0 min 0 min 0 W/m 10,5 km/h (2 Bft)
27.02.2015 07:26 3,8 C 2,8 C 95 % 1011,6 hPa 0,0 l/m 0 min 0 min 0 W/m 10,5 km/h (2 Bft)
27.02.2015 07:28 3,8 C 2,8 C 95 % 1011,6 hPa 0,0 l/m 0 min 0 min 0 W/m 4,2 km/h (1 Bft)
27.02.2015 07:30 3,8 C 2,8 C 95 % 1011,6 hPa 0,0 l/m 0 min 0 min 0 W/m 6,3 km/h (2 Bft)
27.02.2015 07:32 3,8 C 2,8 C 95 % 1011,7 hPa 0,0 l/m 0 min 0 min 0 W/m 10,5 km/h (2 Bft)
27.02.2015 07:34 3,8 C 2,8 C 95 % 1011,7 hPa 0,0 l/m 0 min 0 min 0 W/m 10,5 km/h (2 Bft)
27.02.2015 07:36 3,8 C 2,8 C 95 % 1011,7 hPa 0,0 l/m 0 min 0 min 0 W/m 14,6 km/h (3 Bft)
27.02.2015 07:38 3,8 C 2,8 C 96 % 1011,7 hPa 0,0 l/m 0 min 0 min 0 W/m 10,5 km/h (2 Bft)
27.02.2015 07:40 3,8 C 2,8 C 96 % 1011,8 hPa 0,0 l/m 0 min 0 min 2 W/m 10,5 km/h (2 Bft)
27.02.2015 07:42 3,8 C 2,8 C 96 % 1011,9 hPa 0,0 l/m 0 min 0 min 5 W/m 14,6 km/h (3 Bft)
27.02.2015 07:44 3,8 C 2,8 C 96 % 1011,8 hPa 0,0 l/m 0 min 0 min 5 W/m 16,7 km/h (3 Bft)
27.02.2015 07:46 3,9 C 2,8 C 96 % 1011,9 hPa 0,0 l/m 0 min 0 min 5 W/m 20,9 km/h (4 Bft)
27.02.2015 07:48 3,9 C 2,8 C 96 % 1011,9 hPa 0,0 l/m 0 min 0 min 5 W/m 14,6 km/h (3 Bft)
27.02.2015 07:50 3,9 C 2,8 C 96 % 1012,0 hPa 0,0 l/m 0 min 0 min 5 W/m 18,8 km/h (3 Bft)
27.02.2015 07:52 3,9 C 2,8 C 96 % 1011,9 hPa 0,0 l/m 0 min 0 min 5 W/m 25,1 km/h (4 Bft)
27.02.2015 07:54 4,0 C 2,8 C 96 % 1012,0 hPa 0,0 l/m 0 min 0 min 5 W/m 18,8 km/h (3 Bft)
27.02.2015 07:56 4,1 C 2,8 C 96 % 1012,0 hPa 0,0 l/m 0 min 0 min 7 W/m 23,0 km/h (4 Bft)
27.02.2015 07:58 4,1 C 3,3 C 96 % 1012,0 hPa 0,0 l/m 0 min 0 min 6 W/m 20,9 km/h (4 Bft)
27.02.2015 08:00 4,2 C 3,3 C 96 % 1012,0 hPa 0,0 l/m 0 min 0 min 7 W/m 20,9 km/h (4 Bft)
27.02.2015 08:02 4,2 C 3,3 C 96 % 1012,0 hPa 0,0 l/m 0 min 0 min 7 W/m 23,0 km/h (4 Bft)
27.02.2015 08:04 4,2 C 3,3 C 96 % 1012,1 hPa 0,0 l/m 0 min 0 min 7 W/m 27,2 km/h (4 Bft)
27.02.2015 08:06 4,2 C 3,3 C 96 % 1012,1 hPa 0,0 l/m 0 min 0 min 7 W/m 25,1 km/h (4 Bft)
27.02.2015 08:08 4,3 C 3,3 C 96 % 1012,1 hPa 0,0 l/m 0 min 0 min 8 W/m 20,9 km/h (4 Bft)
27.02.2015 08:10 4,3 C 3,3 C 96 % 1012,2 hPa 0,0 l/m 0 min 0 min 9 W/m 29,3 km/h (5 Bft)
27.02.2015 08:12 4,3 C 3,3 C 96 % 1012,2 hPa 0,0 l/m 0 min 0 min 10 W/m 20,9 km/h (4 Bft)
27.02.2015 08:14 4,4 C 3,3 C 96 % 1012,3 hPa 0,0 l/m 0 min 0 min 11 W/m 25,1 km/h (4 Bft)
27.02.2015 08:16 4,4 C 3,3 C 96 % 1012,4 hPa 0,0 l/m 0 min 0 min 12 W/m 25,1 km/h (4 Bft)
27.02.2015 08:18 4,4 C 3,3 C 96 % 1012,3 hPa 0,0 l/m 0 min 0 min 14 W/m 20,9 km/h (4 Bft)
27.02.2015 08:20 4,4 C 3,3 C 96 % 1012,4 hPa 0,0 l/m 0 min 0 min 19 W/m 20,9 km/h (4 Bft)
27.02.2015 08:22 4,4 C 3,3 C 96 % 1012,4 hPa 0,0 l/m 0 min 0 min 19 W/m 25,1 km/h (4 Bft)
27.02.2015 08:24 4,4 C 3,3 C 96 % 1012,4 hPa 0,0 l/m 0 min 0 min 18 W/m 16,7 km/h (3 Bft)
27.02.2015 08:26 4,4 C 3,3 C 96 % 1012,4 hPa 0,0 l/m 0 min 0 min 22 W/m 20,9 km/h (4 Bft)
27.02.2015 08:28 4,5 C 3,3 C 96 % 1012,5 hPa 0,0 l/m 0 min 0 min 25 W/m 23,0 km/h (4 Bft)
27.02.2015 08:30 4,5 C 3,3 C 96 % 1012,5 hPa 0,0 l/m 0 min 0 min 27 W/m 27,2 km/h (4 Bft)
27.02.2015 08:32 4,5 C 3,3 C 96 % 1012,5 hPa 0,0 l/m 0 min 0 min 27 W/m 23,0 km/h (4 Bft)
27.02.2015 08:34 4,5 C 3,3 C 96 % 1012,5 hPa 0,0 l/m 0 min 0 min 24 W/m 23,0 km/h (4 Bft)
27.02.2015 08:36 4,5 C 3,3 C 96 % 1012,6 hPa 0,0 l/m 0 min 0 min 23 W/m 14,6 km/h (3 Bft)
27.02.2015 08:38 4,6 C 3,3 C 96 % 1012,6 hPa 0,0 l/m 0 min 0 min 25 W/m 18,8 km/h (3 Bft)
27.02.2015 08:40 4,6 C 3,3 C 96 % 1012,6 hPa 0,0 l/m 0 min 0 min 24 W/m 25,1 km/h (4 Bft)
27.02.2015 08:42 4,6 C 3,3 C 96 % 1012,6 hPa 0,0 l/m 0 min 0 min 23 W/m 18,8 km/h (3 Bft)
27.02.2015 08:44 4,6 C 3,3 C 96 % 1012,6 hPa 0,0 l/m 0 min 0 min 21 W/m 25,1 km/h (4 Bft)
27.02.2015 08:46 4,6 C 3,3 C 96 % 1012,7 hPa 0,0 l/m 0 min 0 min 22 W/m 20,9 km/h (4 Bft)
27.02.2015 08:48 4,6 C 3,3 C 96 % 1012,8 hPa 0,0 l/m 0 min 0 min 25 W/m 27,2 km/h (4 Bft)
27.02.2015 08:50 4,6 C 3,3 C 96 % 1012,7 hPa 0,0 l/m 0 min 0 min 27 W/m 25,1 km/h (4 Bft)
27.02.2015 08:52 4,6 C 3,3 C 96 % 1012,9 hPa 0,0 l/m 0 min 0 min 28 W/m 23,0 km/h (4 Bft)
27.02.2015 08:54 4,6 C 3,3 C 96 % 1012,8 hPa 0,0 l/m 0 min 0 min 32 W/m 18,8 km/h (3 Bft)
27.02.2015 08:56 4,6 C 3,3 C 96 % 1012,9 hPa 0,0 l/m 0 min 0 min 33 W/m 14,6 km/h (3 Bft)
27.02.2015 08:58 4,6 C 3,3 C 96 % 1012,8 hPa 0,0 l/m 0 min 0 min 31 W/m 18,8 km/h (3 Bft)
27.02.2015 09:00 4,6 C 3,3 C 96 % 1012,9 hPa 0,0 l/m 0 min 0 min 29 W/m 20,9 km/h (4 Bft)
27.02.2015 09:02 4,6 C 3,3 C 96 % 1012,9 hPa 0,0 l/m 0 min 0 min 30 W/m 25,1 km/h (4 Bft)
27.02.2015 09:04 4,6 C 3,3 C 96 % 1012,9 hPa 0,0 l/m 0 min 0 min 28 W/m 20,9 km/h (4 Bft)
27.02.2015 09:06 4,6 C 3,3 C 96 % 1013,0 hPa 0,0 l/m 0 min 0 min 31 W/m 10,5 km/h (2 Bft)
27.02.2015 09:08 4,6 C 3,9 C 96 % 1013,0 hPa 0,0 l/m 0 min 0 min 35 W/m 25,1 km/h (4 Bft)
27.02.2015 09:10 4,6 C 3,9 C 96 % 1013,0 hPa 0,0 l/m 0 min 0 min 43 W/m 18,8 km/h (3 Bft)
27.02.2015 09:12 4,6 C 3,9 C 96 % 1013,1 hPa 0,0 l/m 0 min 0 min 50 W/m 20,9 km/h (4 Bft)
27.02.2015 09:14 4,6 C 3,9 C 96 % 1013,1 hPa 0,0 l/m 0 min 0 min 52 W/m 23,0 km/h (4 Bft)
27.02.2015 09:16 4,6 C 3,9 C 96 % 1013,2 hPa 0,0 l/m 0 min 0 min 53 W/m 23,0 km/h (4 Bft)
27.02.2015 09:18 4,7 C 3,9 C 96 % 1013,2 hPa 0,0 l/m 0 min 0 min 55 W/m 18,8 km/h (3 Bft)
27.02.2015 09:20 4,7 C 3,9 C 96 % 1013,2 hPa 0,0 l/m 0 min 0 min 64 W/m 18,8 km/h (3 Bft)
27.02.2015 09:22 4,7 C 3,9 C 96 % 1013,3 hPa 0,0 l/m 0 min 0 min 69 W/m 25,1 km/h (4 Bft)
27.02.2015 09:24 4,7 C 3,9 C 96 % 1013,3 hPa 0,0 l/m 0 min 0 min 62 W/m 16,7 km/h (3 Bft)
27.02.2015 09:26 4,7 C 3,9 C 96 % 1013,3 hPa 0,0 l/m 0 min 0 min 56 W/m 16,7 km/h (3 Bft)
27.02.2015 09:28 4,7 C 3,9 C 96 % 1013,4 hPa 0,0 l/m 0 min 0 min 58 W/m 23,0 km/h (4 Bft)
27.02.2015 09:30 4,7 C 3,9 C 96 % 1013,4 hPa 0,0 l/m 0 min 0 min 67 W/m 23,0 km/h (4 Bft)
27.02.2015 09:32 4,7 C 3,9 C 96 % 1013,4 hPa 0,0 l/m 0 min 0 min 75 W/m 18,8 km/h (3 Bft)
27.02.2015 09:34 4,8 C 3,9 C 96 % 1013,4 hPa 0,0 l/m 0 min 0 min 77 W/m 16,7 km/h (3 Bft)
27.02.2015 09:36 4,8 C 3,9 C 96 % 1013,4 hPa 0,0 l/m 0 min 0 min 73 W/m 18,8 km/h (3 Bft)
27.02.2015 09:38 4,8 C 3,9 C 96 % 1013,4 hPa 0,0 l/m 0 min 0 min 81 W/m 18,8 km/h (3 Bft)
27.02.2015 09:40 4,8 C 3,9 C 96 % 1013,4 hPa 0,0 l/m 0 min 0 min 87 W/m 20,9 km/h (4 Bft)
27.02.2015 09:42 4,8 C 3,9 C 96 % 1013,4 hPa 0,0 l/m 0 min 0 min 89 W/m 10,5 km/h (2 Bft)
27.02.2015 09:44 4,8 C 4,4 C 96 % 1013,5 hPa 0,0 l/m 0 min 0 min 87 W/m 10,5 km/h (2 Bft)
27.02.2015 09:46 4,9 C 4,4 C 96 % 1013,5 hPa 0,0 l/m 0 min 0 min 81 W/m 18,8 km/h (3 Bft)
27.02.2015 09:48 4,9 C 4,4 C 96 % 1013,5 hPa 0,0 l/m 0 min 0 min 80 W/m 20,9 km/h (4 Bft)
27.02.2015 09:50 4,9 C 4,4 C 96 % 1013,5 hPa 0,0 l/m 0 min 0 min 90 W/m 16,7 km/h (3 Bft)
27.02.2015 09:52 4,9 C 4,4 C 96 % 1013,5 hPa 0,0 l/m 0 min 0 min 99 W/m 18,8 km/h (3 Bft)
27.02.2015 09:54 4,9 C 4,4 C 96 % 1013,5 hPa 0,0 l/m 0 min 0 min 111 W/m 14,6 km/h (3 Bft)
27.02.2015 09:56 4,9 C 4,4 C 96 % 1013,5 hPa 0,0 l/m 0 min 0 min 125 W/m 23,0 km/h (4 Bft)
27.02.2015 09:58 4,9 C 4,4 C 96 % 1013,5 hPa 0,0 l/m 0 min 0 min 134 W/m 20,9 km/h (4 Bft)
27.02.2015 10:00 5,0 C 4,4 C 96 % 1013,6 hPa 0,0 l/m 0 min 0 min 137 W/m 20,9 km/h (4 Bft)
27.02.2015 10:02 5,0 C 4,4 C 96 % 1013,6 hPa 0,0 l/m 0 min 0 min 117 W/m 20,9 km/h (4 Bft)
27.02.2015 10:04 5,0 C 4,4 C 96 % 1013,6 hPa 0,0 l/m 0 min 0 min 112 W/m 16,7 km/h (3 Bft)
27.02.2015 10:06 5,1 C 4,4 C 96 % 1013,6 hPa 0,0 l/m 0 min 0 min 105 W/m 18,8 km/h (3 Bft)
27.02.2015 10:08 5,1 C 4,4 C 96 % 1013,7 hPa 0,0 l/m 0 min 0 min 106 W/m 23,0 km/h (4 Bft)
27.02.2015 10:10 5,1 C 4,4 C 95 % 1013,8 hPa 0,0 l/m 0 min 0 min 107 W/m 25,1 km/h (4 Bft)
27.02.2015 10:12 5,1 C 4,4 C 95 % 1013,8 hPa 0,0 l/m 0 min 0 min 97 W/m 16,7 km/h (3 Bft)
27.02.2015 10:14 5,1 C 4,4 C 95 % 1013,9 hPa 0,0 l/m 0 min 0 min 93 W/m 18,8 km/h (3 Bft)
27.02.2015 10:16 5,1 C 4,4 C 95 % 1014,0 hPa 0,0 l/m 0 min 0 min 93 W/m 18,8 km/h (3 Bft)
27.02.2015 10:18 5,2 C 4,4 C 95 % 1014,0 hPa 0,0 l/m 0 min 0 min 106 W/m 20,9 km/h (4 Bft)
27.02.2015 10:20 5,2 C 4,4 C 95 % 1014,0 hPa 0,0 l/m 0 min 0 min 115 W/m 23,0 km/h (4 Bft)
27.02.2015 10:22 5,1 C 4,4 C 95 % 1014,0 hPa 0,0 l/m 0 min 0 min 125 W/m 23,0 km/h (4 Bft)
27.02.2015 10:24 5,2 C 4,4 C 95 % 1013,9 hPa 0,0 l/m 0 min 0 min 124 W/m 20,9 km/h (4 Bft)
27.02.2015 10:26 5,2 C 4,4 C 95 % 1013,9 hPa 0,0 l/m 0 min 0 min 130 W/m 14,6 km/h (3 Bft)
27.02.2015 10:28 5,2 C 4,4 C 95 % 1014,0 hPa 0,0 l/m 0 min 0 min 131 W/m 18,8 km/h (3 Bft)
27.02.2015 10:30 5,2 C 4,4 C 95 % 1014,0 hPa 0,0 l/m 0 min 0 min 132 W/m 27,2 km/h (4 Bft)
27.02.2015 10:32 5,2 C 4,4 C 95 % 1014,0 hPa 0,0 l/m 0 min 0 min 136 W/m 18,8 km/h (3 Bft)
27.02.2015 10:34 5,2 C 4,4 C 95 % 1014,0 hPa 0,0 l/m 0 min 0 min 143 W/m 18,8 km/h (3 Bft)
27.02.2015 10:36 5,2 C 4,4 C 94 % 1014,0 hPa 0,0 l/m 0 min 0 min 144 W/m 20,9 km/h (4 Bft)
27.02.2015 10:38 5,2 C 4,4 C 94 % 1014,0 hPa 0,0 l/m 0 min 0 min 155 W/m 18,8 km/h (3 Bft)
27.02.2015 10:40 5,3 C 4,4 C 94 % 1014,1 hPa 0,0 l/m 0 min 0 min 156 W/m 18,8 km/h (3 Bft)
27.02.2015 10:42 5,3 C 5,0 C 94 % 1014,0 hPa 0,0 l/m 0 min 0 min 160 W/m 23,0 km/h (4 Bft)
27.02.2015 10:44 5,3 C 5,0 C 94 % 1014,1 hPa 0,0 l/m 0 min 0 min 148 W/m 14,6 km/h (3 Bft)
27.02.2015 10:46 5,4 C 5,0 C 94 % 1014,1 hPa 0,0 l/m 0 min 0 min 147 W/m 14,6 km/h (3 Bft)
27.02.2015 10:48 5,4 C 5,0 C 94 % 1014,2 hPa 0,0 l/m 0 min 0 min 132 W/m 18,8 km/h (3 Bft)
27.02.2015 10:50 5,4 C 5,0 C 94 % 1014,3 hPa 0,0 l/m 0 min 0 min 122 W/m 23,0 km/h (4 Bft)
27.02.2015 10:52 5,4 C 5,0 C 94 % 1014,2 hPa 0,0 l/m 0 min 0 min 129 W/m 14,6 km/h (3 Bft)
27.02.2015 10:54 5,4 C 5,0 C 94 % 1014,3 hPa 0,0 l/m 0 min 0 min 151 W/m 20,9 km/h (4 Bft)
27.02.2015 10:56 5,5 C 5,0 C 93 % 1014,3 hPa 0,0 l/m 0 min 0 min 152 W/m 25,1 km/h (4 Bft)
27.02.2015 10:58 5,5 C 5,0 C 93 % 1014,3 hPa 0,0 l/m 0 min 0 min 156 W/m 27,2 km/h (4 Bft)
27.02.2015 11:00 5,5 C 5,0 C 93 % 1014,4 hPa 0,0 l/m 0 min 0 min 145 W/m 27,2 km/h (4 Bft)
27.02.2015 11:02 5,5 C 5,0 C 93 % 1014,4 hPa 0,0 l/m 0 min 0 min 145 W/m 20,9 km/h (4 Bft)
27.02.2015 11:04 5,5 C 5,0 C 93 % 1014,4 hPa 0,0 l/m 0 min 0 min 167 W/m 20,9 km/h (4 Bft)
27.02.2015 11:06 5,5 C 5,0 C 93 % 1014,4 hPa 0,0 l/m 0 min 0 min 167 W/m 27,2 km/h (4 Bft)
27.02.2015 11:08 5,5 C 5,0 C 92 % 1014,4 hPa 0,0 l/m 0 min 0 min 180 W/m 25,1 km/h (4 Bft)
27.02.2015 11:10 5,6 C 5,0 C 92 % 1014,4 hPa 0,0 l/m 0 min 0 min 199 W/m 23,0 km/h (4 Bft)
27.02.2015 11:12 5,6 C 5,0 C 92 % 1014,5 hPa 0,0 l/m 0 min 0 min 196 W/m 20,9 km/h (4 Bft)
27.02.2015 11:14 5,6 C 5,0 C 92 % 1014,4 hPa 0,0 l/m 0 min 0 min 182 W/m 20,9 km/h (4 Bft)
27.02.2015 11:16 5,6 C 5,0 C 92 % 1014,5 hPa 0,0 l/m 0 min 0 min 175 W/m 18,8 km/h (3 Bft)
27.02.2015 11:18 5,6 C 5,0 C 92 % 1014,5 hPa 0,0 l/m 0 min 0 min 151 W/m 25,1 km/h (4 Bft)
27.02.2015 11:20 5,7 C 5,0 C 91 % 1014,6 hPa 0,0 l/m 0 min 0 min 153 W/m 23,0 km/h (4 Bft)
27.02.2015 11:22 5,7 C 5,0 C 91 % 1014,6 hPa 0,0 l/m 0 min 0 min 167 W/m 20,9 km/h (4 Bft)
27.02.2015 11:24 5,7 C 5,0 C 91 % 1014,6 hPa 0,0 l/m 0 min 0 min 157 W/m 20,9 km/h (4 Bft)
27.02.2015 11:26 5,7 C 5,6 C 91 % 1014,6 hPa 0,0 l/m 0 min 0 min 184 W/m 16,7 km/h (3 Bft)
27.02.2015 11:28 5,8 C 5,6 C 91 % 1014,6 hPa 0,0 l/m 0 min 0 min 189 W/m 18,8 km/h (3 Bft)
27.02.2015 11:30 5,8 C 5,6 C 91 % 1014,7 hPa 0,0 l/m 0 min 0 min 202 W/m 18,8 km/h (3 Bft)
27.02.2015 11:32 5,8 C 5,6 C 91 % 1014,7 hPa 0,0 l/m 0 min 0 min 195 W/m 14,6 km/h (3 Bft)
27.02.2015 11:34 5,9 C 5,6 C 90 % 1014,8 hPa 0,0 l/m 0 min 0 min 172 W/m 16,7 km/h (3 Bft)
27.02.2015 11:36 5,9 C 5,6 C 90 % 1014,9 hPa 0,0 l/m 0 min 0 min 188 W/m 23,0 km/h (4 Bft)
27.02.2015 11:38 5,9 C 5,6 C 90 % 1014,9 hPa 0,0 l/m 0 min 0 min 170 W/m 20,9 km/h (4 Bft)
27.02.2015 11:40 5,9 C 5,6 C 90 % 1014,9 hPa 0,0 l/m 0 min 0 min 207 W/m 27,2 km/h (4 Bft)
27.02.2015 11:42 5,9 C 5,6 C 90 % 1014,9 hPa 0,0 l/m 2 min 0 min 287 W/m 20,9 km/h (4 Bft)
27.02.2015 11:44 5,9 C 5,6 C 90 % 1014,9 hPa 0,0 l/m 2 min 0 min 304 W/m 20,9 km/h (4 Bft)
27.02.2015 11:46 6,0 C 5,6 C 89 % 1014,9 hPa 0,0 l/m 0 min 0 min 189 W/m 27,2 km/h (4 Bft)
27.02.2015 11:48 6,0 C 5,6 C 89 % 1014,9 hPa 0,0 l/m 0 min 0 min 165 W/m 25,1 km/h (4 Bft)
27.02.2015 11:50 6,0 C 5,6 C 88 % 1015,0 hPa 0,0 l/m 0 min 0 min 240 W/m 27,2 km/h (4 Bft)
27.02.2015 11:52 6,0 C 5,6 C 88 % 1015,0 hPa 0,0 l/m 2 min 0 min 325 W/m 20,9 km/h (4 Bft)
27.02.2015 11:54 6,0 C 5,6 C 88 % 1015,0 hPa 0,0 l/m 0 min 0 min 232 W/m 23,0 km/h (4 Bft)
27.02.2015 11:56 6,1 C 6,1 C 88 % 1015,0 hPa 0,0 l/m 0 min 0 min 240 W/m 20,9 km/h (4 Bft)
27.02.2015 11:58 6,1 C 6,1 C 88 % 1015,1 hPa 0,0 l/m 2 min 0 min 320 W/m 25,1 km/h (4 Bft)
27.02.2015 12:00 6,1 C 6,1 C 87 % 1015,1 hPa 0,0 l/m 2 min 0 min 373 W/m 20,9 km/h (4 Bft)
27.02.2015 12:02 6,2 C 6,1 C 87 % 1015,0 hPa 0,0 l/m 0 min 0 min 177 W/m 25,1 km/h (4 Bft)
27.02.2015 12:06 6,3 C 6,1 C 87 % 1015,2 hPa 0,0 l/m 0 min 0 min 243 W/m 25,1 km/h (4 Bft)
27.02.2015 12:08 6,3 C 6,1 C 87 % 1015,2 hPa 0,0 l/m 2 min 0 min 283 W/m 18,8 km/h (3 Bft)
27.02.2015 12:10 6,4 C 6,1 C 87 % 1015,2 hPa 0,0 l/m 0 min 0 min 244 W/m 27,2 km/h (4 Bft)
27.02.2015 12:12 6,3 C 6,1 C 86 % 1015,2 hPa 0,0 l/m 0 min 0 min 221 W/m 27,2 km/h (4 Bft)
27.02.2015 12:14 6,3 C 6,1 C 86 % 1015,2 hPa 0,0 l/m 0 min 0 min 234 W/m 23,0 km/h (4 Bft)
27.02.2015 12:16 6,3 C 6,1 C 85 % 1015,2 hPa 0,0 l/m 2 min 0 min 274 W/m 18,8 km/h (3 Bft)
27.02.2015 12:18 6,4 C 6,1 C 85 % 1015,3 hPa 0,0 l/m 2 min 0 min 282 W/m 25,1 km/h (4 Bft)
27.02.2015 12:20 6,4 C 6,1 C 85 % 1015,3 hPa 0,0 l/m 2 min 0 min 275 W/m 27,2 km/h (4 Bft)
27.02.2015 12:22 6,4 C 6,7 C 85 % 1015,3 hPa 0,0 l/m 2 min 0 min 320 W/m 16,7 km/h (3 Bft)
27.02.2015 12:24 6,4 C 6,7 C 85 % 1015,3 hPa 0,0 l/m 2 min 0 min 295 W/m 16,7 km/h (3 Bft)
27.02.2015 12:26 6,4 C 6,1 C 85 % 1015,3 hPa 0,0 l/m 2 min 0 min 262 W/m 23,0 km/h (4 Bft)
27.02.2015 12:28 6,5 C 6,1 C 85 % 1015,3 hPa 0,0 l/m 2 min 0 min 320 W/m 31,4 km/h (5 Bft)
27.02.2015 12:30 6,5 C 6,1 C 84 % 1015,3 hPa 0,0 l/m 2 min 0 min 427 W/m 18,8 km/h (3 Bft)
27.02.2015 12:32 6,5 C 6,1 C 83 % 1015,3 hPa 0,0 l/m 2 min 0 min 482 W/m 29,3 km/h (5 Bft)
27.02.2015 12:34 6,6 C 6,1 C 82 % 1015,5 hPa 0,0 l/m 2 min 0 min 558 W/m 27,2 km/h (4 Bft)
27.02.2015 12:36 6,6 C 6,1 C 81 % 1015,5 hPa 0,0 l/m 2 min 0 min 624 W/m 20,9 km/h (4 Bft)
27.02.2015 12:38 6,7 C 6,7 C 81 % 1015,4 hPa 0,0 l/m 2 min 0 min 643 W/m 20,9 km/h (4 Bft)
27.02.2015 12:40 6,7 C 6,7 C 80 % 1015,4 hPa 0,0 l/m 2 min 0 min 663 W/m 27,2 km/h (4 Bft)
27.02.2015 12:42 6,8 C 7,2 C 79 % 1015,6 hPa 0,0 l/m 2 min 0 min 663 W/m 20,9 km/h (4 Bft)
27.02.2015 12:44 6,9 C 7,2 C 79 % 1015,6 hPa 0,0 l/m 2 min 0 min 383 W/m 27,2 km/h (4 Bft)
27.02.2015 12:46 7,0 C 7,2 C 79 % 1015,6 hPa 0,0 l/m 2 min 0 min 342 W/m 20,9 km/h (4 Bft)
27.02.2015 12:48 7,1 C 7,2 C 78 % 1015,6 hPa 0,0 l/m 2 min 0 min 344 W/m 29,3 km/h (5 Bft)
27.02.2015 12:50 7,1 C 6,7 C 78 % 1015,6 hPa 0,0 l/m 2 min 0 min 284 W/m 25,1 km/h (4 Bft)
27.02.2015 12:52 7,1 C 6,1 C 77 % 1015,7 hPa 0,0 l/m 0 min 0 min 188 W/m 25,1 km/h (4 Bft)
27.02.2015 12:54 7,1 C 6,1 C 77 % 1015,6 hPa 0,0 l/m 0 min 0 min 179 W/m 25,1 km/h (4 Bft)
27.02.2015 12:56 7,1 C 6,1 C 77 % 1015,6 hPa 0,0 l/m 0 min 0 min 219 W/m 23,0 km/h (4 Bft)
27.02.2015 12:58 7,1 C 6,7 C 77 % 1015,5 hPa 0,0 l/m 2 min 0 min 487 W/m 25,1 km/h (4 Bft)
27.02.2015 13:00 7,1 C 7,2 C 78 % 1015,5 hPa 0,0 l/m 2 min 0 min 621 W/m 18,8 km/h (3 Bft)
27.02.2015 13:02 7,2 C 7,2 C 78 % 1015,5 hPa 0,0 l/m 2 min 0 min 597 W/m 25,1 km/h (4 Bft)
27.02.2015 13:04 7,3 C 7,8 C 78 % 1015,4 hPa 0,0 l/m 2 min 0 min 596 W/m 23,0 km/h (4 Bft)
27.02.2015 13:06 7,4 C 7,8 C 79 % 1015,5 hPa 0,0 l/m 2 min 0 min 678 W/m 27,2 km/h (4 Bft)
27.02.2015 13:08 7,6 C 7,8 C 79 % 1015,5 hPa 0,0 l/m 2 min 0 min 648 W/m 25,1 km/h (4 Bft)
27.02.2015 13:10 7,6 C 7,8 C 78 % 1015,5 hPa 0,0 l/m 0 min 0 min 216 W/m 18,8 km/h (3 Bft)
27.02.2015 13:12 7,7 C 7,2 C 77 % 1015,5 hPa 0,0 l/m 0 min 0 min 159 W/m 12,6 km/h (3 Bft)
27.02.2015 13:14 7,7 C 6,7 C 76 % 1015,6 hPa 0,0 l/m 0 min 0 min 122 W/m 27,2 km/h (4 Bft)
27.02.2015 13:16 7,7 C 6,1 C 75 % 1015,5 hPa 0,0 l/m 0 min 0 min 108 W/m 16,7 km/h (3 Bft)
27.02.2015 13:18 7,6 C 6,7 C 75 % 1015,5 hPa 0,0 l/m 0 min 0 min 137 W/m 20,9 km/h (4 Bft)
27.02.2015 13:20 7,6 C 6,7 C 76 % 1015,6 hPa 0,0 l/m 0 min 0 min 175 W/m 27,2 km/h (4 Bft)
27.02.2015 13:22 7,6 C 6,7 C 76 % 1015,6 hPa 0,0 l/m 0 min 0 min 182 W/m 29,3 km/h (5 Bft)
27.02.2015 13:24 7,5 C 6,7 C 75 % 1015,7 hPa 0,0 l/m 0 min 0 min 203 W/m 23,0 km/h (4 Bft)
27.02.2015 13:26 7,4 C 6,7 C 76 % 1015,8 hPa 0,0 l/m 0 min 0 min 210 W/m 27,2 km/h (4 Bft)
27.02.2015 13:28 7,4 C 6,7 C 76 % 1015,8 hPa 0,0 l/m 0 min 0 min 217 W/m 35,6 km/h (5 Bft)
27.02.2015 13:30 7,4 C 6,7 C 75 % 1015,7 hPa 0,0 l/m 0 min 0 min 216 W/m 27,2 km/h (4 Bft)
27.02.2015 13:32 7,4 C 6,7 C 75 % 1015,8 hPa 0,0 l/m 0 min 0 min 237 W/m 20,9 km/h (4 Bft)
27.02.2015 13:34 7,4 C 6,7 C 75 % 1015,8 hPa 0,0 l/m 0 min 0 min 191 W/m 18,8 km/h (3 Bft)
27.02.2015 13:36 7,4 C 6,7 C 74 % 1015,8 hPa 0,0 l/m 0 min 0 min 187 W/m 31,4 km/h (5 Bft)
27.02.2015 13:38 7,3 C 6,7 C 73 % 1015,9 hPa 0,0 l/m 0 min 0 min 195 W/m 29,3 km/h (5 Bft)
27.02.2015 13:40 7,2 C 6,1 C 72 % 1015,8 hPa 0,0 l/m 0 min 0 min 175 W/m 27,2 km/h (4 Bft)
27.02.2015 13:42 7,2 C 6,1 C 71 % 1015,8 hPa 0,0 l/m 0 min 0 min 175 W/m 29,3 km/h (5 Bft)
27.02.2015 13:44 7,1 C 6,1 C 71 % 1015,8 hPa 0,0 l/m 0 min 0 min 215 W/m 29,3 km/h (5 Bft)
27.02.2015 13:46 7,1 C 6,7 C 71 % 1015,8 hPa 0,0 l/m 2 min 0 min 265 W/m 23,0 km/h (4 Bft)
27.02.2015 13:48 7,1 C 6,7 C 72 % 1015,8 hPa 0,0 l/m 2 min 0 min 281 W/m 27,2 km/h (4 Bft)
27.02.2015 13:50 7,1 C 6,7 C 73 % 1015,8 hPa 0,0 l/m 2 min 0 min 283 W/m 25,1 km/h (4 Bft)
27.02.2015 13:52 7,2 C 7,2 C 74 % 1015,8 hPa 0,0 l/m 2 min 0 min 340 W/m 23,0 km/h (4 Bft)
27.02.2015 13:54 7,2 C 7,2 C 74 % 1015,9 hPa 0,0 l/m 2 min 0 min 376 W/m 18,8 km/h (3 Bft)
27.02.2015 13:56 7,3 C 7,2 C 75 % 1015,9 hPa 0,0 l/m 2 min 0 min 437 W/m 25,1 km/h (4 Bft)
27.02.2015 13:58 7,3 C 6,7 C 74 % 1015,9 hPa 0,0 l/m 2 min 0 min 239 W/m 25,1 km/h (4 Bft)
27.02.2015 14:00 7,3 C 6,7 C 73 % 1016,1 hPa 0,0 l/m 0 min 0 min 108 W/m 27,2 km/h (4 Bft)
27.02.2015 14:02 7,3 C 6,1 C 73 % 1016,0 hPa 0,0 l/m 0 min 0 min 105 W/m 27,2 km/h (4 Bft)
27.02.2015 14:04 7,3 C 6,1 C 73 % 1016,0 hPa 0,0 l/m 0 min 0 min 121 W/m 33,5 km/h (5 Bft)
27.02.2015 14:06 7,3 C 6,1 C 73 % 1016,1 hPa 0,0 l/m 0 min 0 min 142 W/m 31,4 km/h (5 Bft)
27.02.2015 14:08 7,2 C 6,1 C 73 % 1016,1 hPa 0,0 l/m 0 min 0 min 163 W/m 31,4 km/h (5 Bft)
27.02.2015 14:10 7,2 C 6,1 C 73 % 1016,1 hPa 0,0 l/m 0 min 0 min 168 W/m 27,2 km/h (4 Bft)
27.02.2015 14:12 7,2 C 6,1 C 73 % 1016,1 hPa 0,0 l/m 0 min 0 min 165 W/m 18,8 km/h (3 Bft)
27.02.2015 14:14 7,2 C 6,1 C 72 % 1016,1 hPa 0,0 l/m 0 min 0 min 183 W/m 27,2 km/h (4 Bft)
27.02.2015 14:16 7,1 C 6,1 C 72 % 1016,2 hPa 0,0 l/m 2 min 0 min 299 W/m 23,0 km/h (4 Bft)
27.02.2015 14:18 7,1 C 6,1 C 72 % 1016,2 hPa 0,0 l/m 2 min 0 min 462 W/m 25,1 km/h (4 Bft)
27.02.2015 14:20 7,2 C 6,7 C 72 % 1016,2 hPa 0,0 l/m 2 min 0 min 442 W/m 25,1 km/h (4 Bft)
27.02.2015 14:22 7,2 C 6,7 C 73 % 1016,1 hPa 0,0 l/m 2 min 0 min 410 W/m 20,9 km/h (4 Bft)
27.02.2015 14:24 7,3 C 6,7 C 72 % 1016,2 hPa 0,0 l/m 2 min 0 min 468 W/m 25,1 km/h (4 Bft)
27.02.2015 14:26 7,3 C 7,2 C 71 % 1016,1 hPa 0,0 l/m 2 min 0 min 379 W/m 25,1 km/h (4 Bft)
27.02.2015 14:28 7,4 C 7,2 C 71 % 1016,0 hPa 0,0 l/m 2 min 0 min 535 W/m 23,0 km/h (4 Bft)
27.02.2015 14:30 7,6 C 7,8 C 72 % 1016,1 hPa 0,0 l/m 2 min 0 min 564 W/m 23,0 km/h (4 Bft)
27.02.2015 14:32 7,7 C 7,8 C 72 % 1016,1 hPa 0,0 l/m 2 min 0 min 531 W/m 20,9 km/h (4 Bft)
27.02.2015 14:34 7,8 C 8,3 C 71 % 1016,2 hPa 0,0 l/m 2 min 0 min 581 W/m 25,1 km/h (4 Bft)
27.02.2015 14:36 7,9 C 7,8 C 71 % 1016,3 hPa 0,0 l/m 2 min 0 min 579 W/m 33,5 km/h (5 Bft)
27.02.2015 14:38 8,0 C 7,8 C 70 % 1016,3 hPa 0,0 l/m 2 min 0 min 578 W/m 23,0 km/h (4 Bft)
27.02.2015 14:40 8,1 C 7,8 C 70 % 1016,2 hPa 0,0 l/m 2 min 0 min 465 W/m 18,8 km/h (3 Bft)
27.02.2015 14:42 8,1 C 7,8 C 70 % 1016,3 hPa 0,0 l/m 2 min 0 min 218 W/m 27,2 km/h (4 Bft)
27.02.2015 14:44 8,1 C 7,2 C 70 % 1016,3 hPa 0,0 l/m 0 min 0 min 179 W/m 25,1 km/h (4 Bft)
27.02.2015 14:46 8,1 C 7,2 C 69 % 1016,4 hPa 0,0 l/m 0 min 0 min 176 W/m 25,1 km/h (4 Bft)
27.02.2015 14:48 8,0 C 6,7 C 68 % 1016,4 hPa 0,0 l/m 0 min 0 min 188 W/m 27,2 km/h (4 Bft)
27.02.2015 14:50 7,9 C 6,7 C 68 % 1016,3 hPa 0,0 l/m 0 min 0 min 132 W/m 33,5 km/h (5 Bft)
27.02.2015 14:52 7,8 C 6,1 C 69 % 1016,5 hPa 0,0 l/m 0 min 0 min 135 W/m 29,3 km/h (5 Bft)
27.02.2015 14:54 7,8 C 6,7 C 69 % 1016,5 hPa 0,0 l/m 2 min 0 min 296 W/m 23,0 km/h (4 Bft)
27.02.2015 14:56 7,8 C 6,7 C 69 % 1016,5 hPa 0,0 l/m 2 min 0 min 352 W/m 20,9 km/h (4 Bft)
27.02.2015 14:58 7,8 C 6,7 C 70 % 1016,5 hPa 0,0 l/m 0 min 0 min 113 W/m 23,0 km/h (4 Bft)
27.02.2015 15:00 7,8 C 6,7 C 70 % 1016,5 hPa 0,0 l/m 2 min 0 min 277 W/m 31,4 km/h (5 Bft)
27.02.2015 15:02 7,8 C 6,7 C 69 % 1016,6 hPa 0,0 l/m 2 min 0 min 417 W/m 31,4 km/h (5 Bft)
27.02.2015 15:04 7,8 C 6,7 C 70 % 1016,6 hPa 0,0 l/m 2 min 0 min 411 W/m 31,4 km/h (5 Bft)
27.02.2015 15:06 7,8 C 7,2 C 69 % 1016,6 hPa 0,0 l/m 2 min 0 min 421 W/m 23,0 km/h (4 Bft)
27.02.2015 15:08 7,9 C 7,2 C 69 % 1016,7 hPa 0,0 l/m 2 min 0 min 454 W/m 23,0 km/h (4 Bft)
27.02.2015 15:10 8,0 C 7,8 C 70 % 1016,7 hPa 0,0 l/m 2 min 0 min 499 W/m 18,8 km/h (3 Bft)
27.02.2015 15:12 8,1 C 8,3 C 69 % 1016,7 hPa 0,0 l/m 2 min 0 min 522 W/m 20,9 km/h (4 Bft)
27.02.2015 15:14 8,2 C 8,3 C 70 % 1016,6 hPa 0,0 l/m 2 min 0 min 464 W/m 20,9 km/h (4 Bft)
27.02.2015 15:16 8,3 C 8,3 C 69 % 1016,6 hPa 0,0 l/m 2 min 0 min 263 W/m 27,2 km/h (4 Bft)
27.02.2015 15:18 8,4 C 8,3 C 69 % 1016,8 hPa 0,0 l/m 2 min 0 min 269 W/m 16,7 km/h (3 Bft)
27.02.2015 15:20 8,4 C 8,3 C 68 % 1016,8 hPa 0,0 l/m 2 min 0 min 379 W/m 35,6 km/h (5 Bft)
27.02.2015 15:22 8,5 C 7,8 C 67 % 1016,8 hPa 0,0 l/m 2 min 0 min 420 W/m 33,5 km/h (5 Bft)
27.02.2015 15:24 8,5 C 7,8 C 66 % 1016,8 hPa 0,0 l/m 2 min 0 min 341 W/m 27,2 km/h (4 Bft)
27.02.2015 15:26 8,5 C 7,8 C 67 % 1016,8 hPa 0,0 l/m 2 min 0 min 243 W/m 25,1 km/h (4 Bft)
27.02.2015 15:28 8,5 C 7,8 C 67 % 1016,9 hPa 0,0 l/m 2 min 0 min 360 W/m 29,3 km/h (5 Bft)
27.02.2015 15:30 8,5 C 7,8 C 67 % 1016,9 hPa 0,0 l/m 2 min 0 min 348 W/m 27,2 km/h (4 Bft)
27.02.2015 15:32 8,6 C 7,8 C 67 % 1016,8 hPa 0,0 l/m 2 min 0 min 388 W/m 20,9 km/h (4 Bft)
27.02.2015 15:34 8,6 C 7,8 C 67 % 1016,9 hPa 0,0 l/m 2 min 0 min 412 W/m 27,2 km/h (4 Bft)
27.02.2015 15:36 8,6 C 7,8 C 67 % 1016,9 hPa 0,0 l/m 2 min 0 min 384 W/m 20,9 km/h (4 Bft)
27.02.2015 15:38 8,6 C 7,2 C 65 % 1016,9 hPa 0,0 l/m 2 min 0 min 353 W/m 29,3 km/h (5 Bft)
27.02.2015 15:40 8,6 C 7,2 C 65 % 1017,0 hPa 0,0 l/m 2 min 0 min 337 W/m 31,4 km/h (5 Bft)
27.02.2015 15:42 8,6 C 7,2 C 65 % 1017,0 hPa 0,0 l/m 2 min 0 min 328 W/m 31,4 km/h (5 Bft)
27.02.2015 15:44 8,6 C 7,2 C 64 % 1017,1 hPa 0,0 l/m 2 min 0 min 327 W/m 25,1 km/h (4 Bft)
27.02.2015 15:46 8,5 C 6,7 C 63 % 1016,9 hPa 0,0 l/m 2 min 0 min 337 W/m 31,4 km/h (5 Bft)
27.02.2015 15:48 8,4 C 6,7 C 64 % 1017,0 hPa 0,0 l/m 2 min 0 min 348 W/m 27,2 km/h (4 Bft)
27.02.2015 15:50 8,4 C 6,7 C 63 % 1017,0 hPa 0,0 l/m 2 min 0 min 350 W/m 29,3 km/h (5 Bft)
27.02.2015 15:52 8,3 C 6,7 C 64 % 1017,0 hPa 0,0 l/m 2 min 0 min 346 W/m 20,9 km/h (4 Bft)
27.02.2015 15:54 8,3 C 7,2 C 64 % 1017,1 hPa 0,0 l/m 2 min 0 min 348 W/m 23,0 km/h (4 Bft)
27.02.2015 15:56 8,3 C 7,2 C 64 % 1017,1 hPa 0,0 l/m 2 min 0 min 342 W/m 27,2 km/h (4 Bft)
27.02.2015 15:58 8,3 C 7,2 C 64 % 1017,1 hPa 0,0 l/m 2 min 0 min 335 W/m 25,1 km/h (4 Bft)
27.02.2015 16:00 8,4 C 7,2 C 64 % 1017,2 hPa 0,0 l/m 2 min 0 min 338 W/m 20,9 km/h (4 Bft)
27.02.2015 16:02 8,4 C 7,2 C 64 % 1017,1 hPa 0,0 l/m 2 min 0 min 329 W/m 23,0 km/h (4 Bft)
27.02.2015 16:04 8,4 C 7,2 C 64 % 1017,1 hPa 0,0 l/m 2 min 0 min 261 W/m 18,8 km/h (3 Bft)
27.02.2015 16:06 8,4 C 7,2 C 65 % 1017,2 hPa 0,0 l/m 0 min 0 min 109 W/m 20,9 km/h (4 Bft)
27.02.2015 16:08 8,4 C 6,7 C 64 % 1017,3 hPa 0,0 l/m 0 min 0 min 85 W/m 20,9 km/h (4 Bft)
27.02.2015 16:10 8,3 C 6,7 C 64 % 1017,2 hPa 0,0 l/m 0 min 0 min 88 W/m 25,1 km/h (4 Bft)
27.02.2015 16:12 8,3 C 6,1 C 63 % 1017,3 hPa 0,0 l/m 0 min 0 min 134 W/m 27,2 km/h (4 Bft)
27.02.2015 16:14 8,2 C 6,1 C 63 % 1017,3 hPa 0,0 l/m 2 min 0 min 148 W/m 25,1 km/h (4 Bft)
27.02.2015 16:16 8,1 C 6,1 C 63 % 1017,3 hPa 0,0 l/m 0 min 0 min 88 W/m 23,0 km/h (4 Bft)
27.02.2015 16:18 8,0 C 6,1 C 63 % 1017,3 hPa 0,0 l/m 0 min 0 min 74 W/m 20,9 km/h (4 Bft)
27.02.2015 16:20 7,9 C 5,6 C 64 % 1017,3 hPa 0,0 l/m 0 min 0 min 95 W/m 25,1 km/h (4 Bft)
27.02.2015 16:22 7,8 C 5,6 C 64 % 1017,3 hPa 0,0 l/m 2 min 0 min 151 W/m 20,9 km/h (4 Bft)
27.02.2015 16:24 7,8 C 6,1 C 64 % 1017,4 hPa 0,0 l/m 2 min 0 min 189 W/m 12,6 km/h (3 Bft)
27.02.2015 16:26 7,7 C 6,1 C 64 % 1017,4 hPa 0,0 l/m 2 min 0 min 124 W/m 20,9 km/h (4 Bft)
27.02.2015 16:28 7,7 C 6,1 C 64 % 1017,4 hPa 0,0 l/m 2 min 0 min 126 W/m 18,8 km/h (3 Bft)
27.02.2015 16:30 7,7 C 6,1 C 64 % 1017,4 hPa 0,0 l/m 2 min 0 min 178 W/m 18,8 km/h (3 Bft)
27.02.2015 16:32 7,6 C 6,1 C 64 % 1017,4 hPa 0,0 l/m 2 min 0 min 184 W/m 23,0 km/h (4 Bft)
27.02.2015 16:34 7,6 C 6,1 C 64 % 1017,4 hPa 0,0 l/m 2 min 0 min 179 W/m 23,0 km/h (4 Bft)
27.02.2015 16:36 7,6 C 6,1 C 64 % 1017,4 hPa 0,0 l/m 2 min 0 min 147 W/m 14,6 km/h (3 Bft)
27.02.2015 16:38 7,6 C 6,1 C 64 % 1017,4 hPa 0,0 l/m 0 min 0 min 96 W/m 14,6 km/h (3 Bft)
27.02.2015 16:40 7,6 C 6,1 C 64 % 1017,5 hPa 0,0 l/m 0 min 0 min 103 W/m 14,6 km/h (3 Bft)
27.02.2015 16:42 7,6 C 5,6 C 64 % 1017,5 hPa 0,0 l/m 2 min 0 min 117 W/m 23,0 km/h (4 Bft)
27.02.2015 16:44 7,5 C 5,6 C 64 % 1017,5 hPa 0,0 l/m 2 min 0 min 104 W/m 25,1 km/h (4 Bft)
27.02.2015 16:46 7,5 C 5,6 C 64 % 1017,5 hPa 0,0 l/m 0 min 0 min 74 W/m 18,8 km/h (3 Bft)
27.02.2015 16:48 7,4 C 5,6 C 65 % 1017,5 hPa 0,0 l/m 0 min 0 min 74 W/m 14,6 km/h (3 Bft)
27.02.2015 16:50 7,4 C 5,6 C 65 % 1017,6 hPa 0,0 l/m 0 min 0 min 75 W/m 18,8 km/h (3 Bft)
27.02.2015 16:52 7,4 C 5,6 C 65 % 1017,6 hPa 0,0 l/m 0 min 0 min 78 W/m 23,0 km/h (4 Bft)
27.02.2015 16:54 7,4 C 5,6 C 65 % 1017,5 hPa 0,0 l/m 0 min 0 min 74 W/m 20,9 km/h (4 Bft)
27.02.2015 16:56 7,3 C 5,6 C 65 % 1017,6 hPa 0,0 l/m 0 min 0 min 63 W/m 14,6 km/h (3 Bft)
27.02.2015 16:58 7,3 C 5,6 C 65 % 1017,5 hPa 0,0 l/m 0 min 0 min 54 W/m 12,6 km/h (3 Bft)
27.02.2015 17:00 7,3 C 5,6 C 66 % 1017,6 hPa 0,0 l/m 0 min 0 min 47 W/m 12,6 km/h (3 Bft)
27.02.2015 17:02 7,3 C 5,6 C 67 % 1017,6 hPa 0,0 l/m 0 min 0 min 41 W/m 8,4 km/h (2 Bft)
27.02.2015 17:04 7,2 C 5,6 C 67 % 1017,6 hPa 0,0 l/m 0 min 0 min 38 W/m 12,6 km/h (3 Bft)
27.02.2015 17:06 7,2 C 5,6 C 67 % 1017,7 hPa 0,0 l/m 0 min 2 min 41 W/m 14,6 km/h (3 Bft)
27.02.2015 17:08 7,2 C 5,6 C 68 % 1017,7 hPa 0,0 l/m 0 min 2 min 51 W/m 16,7 km/h (3 Bft)
27.02.2015 17:10 7,2 C 5,0 C 68 % 1017,7 hPa 0,0 l/m 0 min 2 min 65 W/m 16,7 km/h (3 Bft)
27.02.2015 17:12 7,2 C 5,0 C 69 % 1017,7 hPa 0,0 l/m 0 min 0 min 62 W/m 10,5 km/h (2 Bft)
27.02.2015 17:14 7,2 C 5,0 C 70 % 1017,7 hPa 0,0 l/m 2 min 0 min 66 W/m 12,6 km/h (3 Bft)
27.02.2015 17:16 7,1 C 5,0 C 70 % 1017,7 hPa 0,0 l/m 0 min 0 min 59 W/m 14,6 km/h (3 Bft)
27.02.2015 17:18 7,1 C 4,4 C 70 % 1017,7 hPa 0,0 l/m 0 min 0 min 51 W/m 14,6 km/h (3 Bft)
27.02.2015 17:20 7,1 C 4,4 C 70 % 1017,7 hPa 0,0 l/m 0 min 0 min 43 W/m 12,6 km/h (3 Bft)
27.02.2015 17:22 7,1 C 4,4 C 71 % 1017,7 hPa 0,0 l/m 0 min 0 min 36 W/m 12,6 km/h (3 Bft)
27.02.2015 17:24 7,0 C 4,4 C 71 % 1017,7 hPa 0,0 l/m 0 min 0 min 34 W/m 12,6 km/h (3 Bft)
27.02.2015 17:26 7,0 C 4,4 C 71 % 1017,7 hPa 0,0 l/m 0 min 0 min 31 W/m 10,5 km/h (2 Bft)
27.02.2015 17:28 6,9 C 4,4 C 71 % 1017,7 hPa 0,0 l/m 0 min 0 min 30 W/m 12,6 km/h (3 Bft)
27.02.2015 17:30 6,9 C 4,4 C 71 % 1017,7 hPa 0,0 l/m 0 min 0 min 28 W/m 10,5 km/h (2 Bft)
27.02.2015 17:32 6,9 C 3,9 C 71 % 1017,7 hPa 0,0 l/m 0 min 0 min 27 W/m 10,5 km/h (2 Bft)
27.02.2015 17:34 6,9 C 3,9 C 72 % 1017,7 hPa 0,0 l/m 0 min 0 min 26 W/m 8,4 km/h (2 Bft)
27.02.2015 17:36 6,8 C 3,9 C 72 % 1017,8 hPa 0,0 l/m 0 min 0 min 26 W/m 6,3 km/h (2 Bft)
27.02.2015 17:38 6,8 C 3,9 C 72 % 1017,8 hPa 0,0 l/m 0 min 0 min 25 W/m 10,5 km/h (2 Bft)
27.02.2015 17:40 6,7 C 3,9 C 72 % 1017,9 hPa 0,0 l/m 0 min 0 min 24 W/m 10,5 km/h (2 Bft)
27.02.2015 17:42 6,7 C 3,3 C 72 % 1017,9 hPa 0,0 l/m 0 min 0 min 22 W/m 12,6 km/h (3 Bft)
27.02.2015 17:44 6,7 C 3,3 C 72 % 1017,8 hPa 0,0 l/m 0 min 0 min 21 W/m 10,5 km/h (2 Bft)
27.02.2015 17:46 6,6 C 3,3 C 72 % 1017,9 hPa 0,0 l/m 0 min 0 min 20 W/m 10,5 km/h (2 Bft)
27.02.2015 17:48 6,6 C 3,3 C 72 % 1017,9 hPa 0,0 l/m 0 min 0 min 19 W/m 8,4 km/h (2 Bft)
27.02.2015 17:50 6,5 C 3,3 C 72 % 1018,0 hPa 0,0 l/m 0 min 0 min 18 W/m 6,3 km/h (2 Bft)
27.02.2015 17:52 6,4 C 3,3 C 73 % 1018,0 hPa 0,0 l/m 2 min 0 min 18 W/m 6,3 km/h (2 Bft)
27.02.2015 17:54 6,4 C 3,3 C 73 % 1018,0 hPa 0,0 l/m 2 min 0 min 16 W/m 4,2 km/h (1 Bft)
27.02.2015 17:56 6,4 C 2,8 C 73 % 1018,0 hPa 0,0 l/m 2 min 0 min 14 W/m 4,2 km/h (1 Bft)
27.02.2015 17:58 6,3 C 2,8 C 73 % 1018,0 hPa 0,0 l/m 2 min 0 min 13 W/m 8,4 km/h (2 Bft)
27.02.2015 18:00 6,3 C 2,8 C 73 % 1018,1 hPa 0,0 l/m 0 min 0 min 12 W/m 6,3 km/h (2 Bft)
27.02.2015 18:02 6,2 C 2,8 C 73 % 1018,1 hPa 0,0 l/m 0 min 0 min 11 W/m 8,4 km/h (2 Bft)
27.02.2015 18:06 6,1 C 2,8 C 73 % 1018,2 hPa 0,0 l/m 0 min 0 min 10 W/m 8,4 km/h (2 Bft)
27.02.2015 18:08 6,1 C 2,8 C 74 % 1018,2 hPa 0,0 l/m 0 min 0 min 9 W/m 4,2 km/h (1 Bft)
27.02.2015 18:10 6,0 C 2,2 C 74 % 1018,3 hPa 0,0 l/m 0 min 0 min 8 W/m 4,2 km/h (1 Bft)
27.02.2015 18:12 5,9 C 2,2 C 74 % 1018,4 hPa 0,0 l/m 0 min 0 min 7 W/m 4,2 km/h (1 Bft)
27.02.2015 18:14 5,9 C 2,2 C 74 % 1018,4 hPa 0,0 l/m 0 min 0 min 7 W/m 6,3 km/h (2 Bft)
27.02.2015 18:16 5,9 C 2,2 C 74 % 1018,4 hPa 0,0 l/m 0 min 0 min 5 W/m 4,2 km/h (1 Bft)
27.02.2015 18:18 5,8 C 2,2 C 74 % 1018,4 hPa 0,0 l/m 0 min 0 min 5 W/m 6,3 km/h (2 Bft)
27.02.2015 18:20 5,8 C 2,2 C 74 % 1018,4 hPa 0,0 l/m 0 min 0 min 2 W/m 4,2 km/h (1 Bft)
27.02.2015 18:22 5,7 C 2,2 C 74 % 1018,4 hPa 0,0 l/m 0 min 0 min 0 W/m 6,3 km/h (2 Bft)
27.02.2015 18:24 5,7 C 2,2 C 75 % 1018,4 hPa 0,0 l/m 0 min 0 min 0 W/m 8,4 km/h (2 Bft)
27.02.2015 18:26 5,6 C 2,2 C 75 % 1018,5 hPa 0,0 l/m 0 min 0 min 0 W/m 8,4 km/h (2 Bft)
27.02.2015 18:28 5,6 C 2,2 C 75 % 1018,5 hPa 0,0 l/m 0 min 0 min 0 W/m 8,4 km/h (2 Bft)
27.02.2015 18:30 5,5 C 1,7 C 75 % 1018,5 hPa 0,0 l/m 0 min 0 min 0 W/m 6,3 km/h (2 Bft)
27.02.2015 18:32 5,4 C 1,7 C 75 % 1018,5 hPa 0,0 l/m 0 min 0 min 0 W/m 8,4 km/h (2 Bft)
27.02.2015 18:34 5,4 C 1,7 C 75 % 1018,6 hPa 0,0 l/m 0 min 0 min 0 W/m 6,3 km/h (2 Bft)
27.02.2015 18:36 5,3 C 1,7 C 75 % 1018,6 hPa 0,0 l/m 0 min 0 min 0 W/m 6,3 km/h (2 Bft)
27.02.2015 18:38 5,3 C 1,7 C 76 % 1018,6 hPa 0,0 l/m 0 min 0 min 0 W/m 6,3 km/h (2 Bft)
27.02.2015 18:40 5,2 C 1,7 C 76 % 1018,7 hPa 0,0 l/m 0 min 0 min 0 W/m 6,3 km/h (2 Bft)
27.02.2015 18:42 5,2 C 1,7 C 76 % 1018,7 hPa 0,0 l/m 0 min 0 min 0 W/m 6,3 km/h (2 Bft)
27.02.2015 18:44 5,1 C 1,7 C 76 % 1018,7 hPa 0,0 l/m 0 min 0 min 0 W/m 6,3 km/h (2 Bft)
27.02.2015 18:46 5,1 C 1,7 C 76 % 1018,8 hPa 0,0 l/m 0 min 0 min 0 W/m 6,3 km/h (2 Bft)
27.02.2015 18:48 5,0 C 1,7 C 76 % 1018,7 hPa 0,0 l/m 0 min 0 min 0 W/m 6,3 km/h (2 Bft)
27.02.2015 18:50 4,9 C 1,7 C 76 % 1018,8 hPa 0,0 l/m 0 min 0 min 0 W/m 6,3 km/h (2 Bft)
27.02.2015 18:52 4,9 C 1,7 C 76 % 1018,8 hPa 0,0 l/m 0 min 0 min 0 W/m 4,2 km/h (1 Bft)
27.02.2015 18:54 4,8 C 1,1 C 77 % 1018,8 hPa 0,0 l/m 0 min 0 min 0 W/m 6,3 km/h (2 Bft)
27.02.2015 18:56 4,8 C 1,1 C 77 % 1018,9 hPa 0,0 l/m 0 min 0 min 0 W/m 4,2 km/h (1 Bft)
27.02.2015 18:58 4,7 C 1,1 C 77 % 1018,9 hPa 0,0 l/m 0 min 0 min 0 W/m 6,3 km/h (2 Bft)
27.02.2015 19:00 4,7 C 1,1 C 77 % 1018,9 hPa 0,0 l/m 0 min 0 min 0 W/m 8,4 km/h (2 Bft)
27.02.2015 19:02 4,7 C 1,1 C 77 % 1019,0 hPa 0,0 l/m 0 min 0 min 0 W/m 8,4 km/h (2 Bft)
27.02.2015 19:04 4,6 C 1,1 C 77 % 1019,0 hPa 0,0 l/m 0 min 0 min 0 W/m 8,4 km/h (2 Bft)
27.02.2015 19:06 4,6 C 1,1 C 77 % 1019,1 hPa 0,0 l/m 0 min 0 min 0 W/m 4,2 km/h (1 Bft)
27.02.2015 19:08 4,5 C 1,1 C 78 % 1019,1 hPa 0,0 l/m 0 min 0 min 0 W/m 6,3 km/h (2 Bft)
27.02.2015 19:10 4,4 C 1,1 C 78 % 1019,1 hPa 0,0 l/m 0 min 0 min 0 W/m 4,2 km/h (1 Bft)
27.02.2015 19:12 4,4 C 1,1 C 78 % 1019,1 hPa 0,0 l/m 0 min 0 min 0 W/m 6,3 km/h (2 Bft)
27.02.2015 19:14 4,4 C 1,1 C 78 % 1019,2 hPa 0,0 l/m 0 min 0 min 0 W/m 6,3 km/h (2 Bft)
27.02.2015 19:16 4,3 C 1,1 C 78 % 1019,2 hPa 0,0 l/m 0 min 0 min 0 W/m 4,2 km/h (1 Bft)
27.02.2015 19:18 4,3 C 1,1 C 78 % 1019,3 hPa 0,0 l/m 0 min 0 min 0 W/m 4,2 km/h (1 Bft)
27.02.2015 19:20 4,2 C 1,1 C 79 % 1019,3 hPa 0,0 l/m 0 min 0 min 0 W/m 4,2 km/h (1 Bft)
27.02.2015 19:22 4,2 C 1,1 C 79 % 1019,4 hPa 0,0 l/m 0 min 0 min 0 W/m 6,3 km/h (2 Bft)
27.02.2015 19:24 4,2 C 1,1 C 79 % 1019,4 hPa 0,0 l/m 0 min 0 min 0 W/m 6,3 km/h (2 Bft)
27.02.2015 19:26 4,2 C 1,1 C 79 % 1019,5 hPa 0,0 l/m 0 min 0 min 0 W/m 6,3 km/h (2 Bft)
27.02.2015 19:28 4,1 C 1,1 C 79 % 1019,5 hPa 0,0 l/m 0 min 0 min 0 W/m 8,4 km/h (2 Bft)
27.02.2015 19:30 4,1 C 1,1 C 79 % 1019,5 hPa 0,0 l/m 0 min 0 min 0 W/m 8,4 km/h (2 Bft)
27.02.2015 19:32 4,1 C 1,1 C 79 % 1019,5 hPa 0,0 l/m 0 min 0 min 0 W/m 8,4 km/h (2 Bft)
27.02.2015 19:34 4,0 C 1,1 C 80 % 1019,5 hPa 0,0 l/m 0 min 0 min 0 W/m 6,3 km/h (2 Bft)
27.02.2015 19:36 3,9 C 1,1 C 80 % 1019,6 hPa 0,0 l/m 0 min 0 min 0 W/m 8,4 km/h (2 Bft)
27.02.2015 19:38 3,9 C 1,1 C 80 % 1019,5 hPa 0,0 l/m 0 min 0 min 0 W/m 8,4 km/h (2 Bft)
27.02.2015 19:40 3,9 C 1,1 C 80 % 1019,5 hPa 0,0 l/m 0 min 0 min 0 W/m 6,3 km/h (2 Bft)
27.02.2015 19:42 3,9 C 1,1 C 81 % 1019,6 hPa 0,0 l/m 0 min 0 min 0 W/m 6,3 km/h (2 Bft)
27.02.2015 19:44 3,9 C 1,1 C 81 % 1019,6 hPa 0,0 l/m 0 min 0 min 0 W/m 8,4 km/h (2 Bft)
27.02.2015 19:46 3,8 C 1,1 C 81 % 1019,6 hPa 0,0 l/m 0 min 0 min 0 W/m 6,3 km/h (2 Bft)
27.02.2015 19:48 3,8 C 0,6 C 81 % 1019,7 hPa 0,0 l/m 0 min 0 min 0 W/m 8,4 km/h (2 Bft)
27.02.2015 19:50 3,7 C 0,6 C 81 % 1019,7 hPa 0,0 l/m 0 min 0 min 0 W/m 10,5 km/h (2 Bft)
27.02.2015 19:52 3,7 C 0,6 C 81 % 1019,7 hPa 0,0 l/m 0 min 0 min 0 W/m 8,4 km/h (2 Bft)
27.02.2015 19:54 3,7 C 0,6 C 81 % 1019,7 hPa 0,0 l/m 0 min 0 min 0 W/m 6,3 km/h (2 Bft)
27.02.2015 19:56 3,7 C 0,6 C 81 % 1019,7 hPa 0,0 l/m 0 min 0 min 0 W/m 6,3 km/h (2 Bft)
27.02.2015 19:58 3,6 C 0,6 C 81 % 1019,7 hPa 0,0 l/m 0 min 0 min 0 W/m 8,4 km/h (2 Bft)
27.02.2015 20:00 3,6 C 0,6 C 81 % 1019,7 hPa 0,0 l/m 0 min 0 min 0 W/m 10,5 km/h (2 Bft)
27.02.2015 20:02 3,6 C 0,6 C 81 % 1019,7 hPa 0,0 l/m 0 min 0 min 0 W/m 6,3 km/h (2 Bft)
27.02.2015 20:04 3,5 C 0,6 C 81 % 1019,8 hPa 0,0 l/m 0 min 0 min 0 W/m 8,4 km/h (2 Bft)
27.02.2015 20:06 3,5 C 0,6 C 81 % 1019,8 hPa 0,0 l/m 0 min 0 min 0 W/m 8,4 km/h (2 Bft)
27.02.2015 20:08 3,4 C 0,6 C 82 % 1019,8 hPa 0,0 l/m 0 min 0 min 0 W/m 8,4 km/h (2 Bft)
27.02.2015 20:10 3,4 C 0,6 C 82 % 1019,8 hPa 0,0 l/m 0 min 0 min 0 W/m 6,3 km/h (2 Bft)
27.02.2015 20:12 3,4 C 0,6 C 82 % 1019,8 hPa 0,0 l/m 0 min 0 min 0 W/m 6,3 km/h (2 Bft)
27.02.2015 20:14 3,3 C 0,6 C 82 % 1019,8 hPa 0,0 l/m 0 min 0 min 0 W/m 6,3 km/h (2 Bft)
27.02.2015 20:16 3,3 C 0,6 C 82 % 1019,8 hPa 0,0 l/m 0 min 0 min 0 W/m 6,3 km/h (2 Bft)
27.02.2015 20:18 3,3 C 0,6 C 82 % 1019,8 hPa 0,0 l/m 0 min 0 min 0 W/m 6,3 km/h (2 Bft)
27.02.2015 20:20 3,2 C 0,6 C 82 % 1019,9 hPa 0,0 l/m 0 min 0 min 0 W/m 8,4 km/h (2 Bft)
27.02.2015 20:22 3,2 C 0,6 C 82 % 1019,9 hPa 0,0 l/m 0 min 0 min 0 W/m 10,5 km/h (2 Bft)
27.02.2015 20:24 3,2 C 0,6 C 82 % 1019,9 hPa 0,0 l/m 0 min 0 min 0 W/m 12,6 km/h (3 Bft)
27.02.2015 20:26 3,1 C 0,6 C 82 % 1019,9 hPa 0,0 l/m 0 min 0 min 0 W/m 10,5 km/h (2 Bft)
27.02.2015 20:28 3,1 C 0,6 C 82 % 1020,0 hPa 0,0 l/m 0 min 0 min 0 W/m 14,6 km/h (3 Bft)
27.02.2015 20:30 3,1 C 0,6 C 82 % 1020,0 hPa 0,0 l/m 0 min 0 min 0 W/m 6,3 km/h (2 Bft)
27.02.2015 20:32 3,1 C 0,6 C 82 % 1020,0 hPa 0,0 l/m 0 min 0 min 0 W/m 12,6 km/h (3 Bft)
27.02.2015 20:34 3,0 C 0,6 C 83 % 1020,0 hPa 0,0 l/m 0 min 0 min 0 W/m 8,4 km/h (2 Bft)
27.02.2015 20:36 3,0 C 0,6 C 83 % 1020,1 hPa 0,0 l/m 0 min 0 min 0 W/m 6,3 km/h (2 Bft)
27.02.2015 20:38 3,0 C 0,6 C 83 % 1020,0 hPa 0,0 l/m 0 min 0 min 0 W/m 12,6 km/h (3 Bft)
27.02.2015 20:40 2,9 C 0,6 C 83 % 1020,0 hPa 0,0 l/m 0 min 0 min 0 W/m 10,5 km/h (2 Bft)
27.02.2015 20:42 2,9 C 0,6 C 83 % 1020,1 hPa 0,0 l/m 0 min 0 min 0 W/m 8,4 km/h (2 Bft)
27.02.2015 20:44 2,9 C 0,6 C 83 % 1020,1 hPa 0,0 l/m 0 min 0 min 0 W/m 10,5 km/h (2 Bft)
27.02.2015 20:46 2,9 C 0,6 C 83 % 1020,1 hPa 0,0 l/m 0 min 0 min 0 W/m 6,3 km/h (2 Bft)
27.02.2015 20:48 2,9 C 0,6 C 83 % 1020,1 hPa 0,0 l/m 0 min 0 min 0 W/m 10,5 km/h (2 Bft)
27.02.2015 20:50 2,9 C 0,6 C 83 % 1020,1 hPa 0,0 l/m 0 min 0 min 0 W/m 10,5 km/h (2 Bft)
27.02.2015 20:52 2,8 C 0,6 C 83 % 1020,2 hPa 0,0 l/m 0 min 0 min 0 W/m 8,4 km/h (2 Bft)
27.02.2015 20:54 2,8 C 0,6 C 83 % 1020,2 hPa 0,0 l/m 0 min 0 min 0 W/m 8,4 km/h (2 Bft)
27.02.2015 20:56 2,8 C 0,0 C 83 % 1020,3 hPa 0,0 l/m 0 min 0 min 0 W/m 6,3 km/h (2 Bft)
27.02.2015 20:58 2,8 C 0,0 C 83 % 1020,3 hPa 0,0 l/m 0 min 0 min 0 W/m 4,2 km/h (1 Bft)
27.02.2015 21:00 2,8 C 0,0 C 84 % 1020,4 hPa 0,0 l/m 0 min 0 min 0 W/m 6,3 km/h (2 Bft)
27.02.2015 21:02 2,8 C 0,0 C 84 % 1020,4 hPa 0,0 l/m 0 min 0 min 0 W/m 4,2 km/h (1 Bft)
27.02.2015 21:04 2,7 C 0,0 C 84 % 1020,3 hPa 0,0 l/m 0 min 0 min 0 W/m 6,3 km/h (2 Bft)
27.02.2015 21:06 2,7 C 0,0 C 84 % 1020,4 hPa 0,0 l/m 0 min 0 min 0 W/m 4,2 km/h (1 Bft)
27.02.2015 21:08 2,7 C 0,0 C 84 % 1020,4 hPa 0,0 l/m 0 min 0 min 0 W/m 10,5 km/h (2 Bft)
27.02.2015 21:10 2,7 C 0,0 C 84 % 1020,4 hPa 0,0 l/m 0 min 0 min 0 W/m 8,4 km/h (2 Bft)
27.02.2015 21:12 2,7 C 0,0 C 84 % 1020,4 hPa 0,0 l/m 0 min 0 min 0 W/m 6,3 km/h (2 Bft)
27.02.2015 21:14 2,7 C 0,0 C 84 % 1020,5 hPa 0,0 l/m 0 min 0 min 0 W/m 6,3 km/h (2 Bft)
27.02.2015 21:16 2,6 C 0,0 C 84 % 1020,4 hPa 0,0 l/m 0 min 0 min 0 W/m 4,2 km/h (1 Bft)
27.02.2015 21:18 2,6 C 0,0 C 84 % 1020,5 hPa 0,0 l/m 0 min 0 min 0 W/m 8,4 km/h (2 Bft)
27.02.2015 21:20 2,6 C 0,0 C 84 % 1020,5 hPa 0,0 l/m 0 min 0 min 0 W/m 10,5 km/h (2 Bft)
27.02.2015 21:22 2,6 C 0,0 C 84 % 1020,5 hPa 0,0 l/m 0 min 0 min 0 W/m 8,4 km/h (2 Bft)
27.02.2015 21:24 2,5 C 0,0 C 84 % 1020,6 hPa 0,0 l/m 0 min 0 min 0 W/m 4,2 km/h (1 Bft)
27.02.2015 21:26 2,5 C 0,0 C 84 % 1020,5 hPa 0,0 l/m 0 min 0 min 0 W/m 8,4 km/h (2 Bft)
27.02.2015 21:28 2,5 C 0,0 C 84 % 1020,6 hPa 0,0 l/m 0 min 0 min 0 W/m 6,3 km/h (2 Bft)
27.02.2015 21:30 2,4 C 0,0 C 84 % 1020,6 hPa 0,0 l/m 0 min 0 min 0 W/m 10,5 km/h (2 Bft)
27.02.2015 21:32 2,4 C 0,0 C 84 % 1020,6 hPa 0,0 l/m 0 min 0 min 0 W/m 14,6 km/h (3 Bft)
27.02.2015 21:34 2,4 C 0,0 C 84 % 1020,7 hPa 0,0 l/m 0 min 0 min 0 W/m 8,4 km/h (2 Bft)
27.02.2015 21:36 2,4 C 0,0 C 84 % 1020,7 hPa 0,0 l/m 0 min 0 min 0 W/m 8,4 km/h (2 Bft)
27.02.2015 21:38 2,3 C 0,0 C 84 % 1020,7 hPa 0,0 l/m 0 min 0 min 0 W/m 8,4 km/h (2 Bft)
27.02.2015 21:40 2,3 C 0,0 C 85 % 1020,7 hPa 0,0 l/m 0 min 0 min 0 W/m 6,3 km/h (2 Bft)
27.02.2015 21:42 2,3 C -0,6 C 85 % 1020,8 hPa 0,0 l/m 0 min 0 min 0 W/m 4,2 km/h (1 Bft)
27.02.2015 21:44 2,3 C -0,6 C 85 % 1020,8 hPa 0,0 l/m 0 min 0 min 0 W/m 4,2 km/h (1 Bft)
27.02.2015 21:46 2,3 C -0,6 C 85 % 1020,8 hPa 0,0 l/m 0 min 0 min 0 W/m 6,3 km/h (2 Bft)
27.02.2015 21:48 2,2 C -0,6 C 85 % 1020,8 hPa 0,0 l/m 0 min 0 min 0 W/m 6,3 km/h (2 Bft)
27.02.2015 21:50 2,2 C -0,6 C 85 % 1020,9 hPa 0,0 l/m 0 min 0 min 0 W/m 6,3 km/h (2 Bft)
27.02.2015 21:52 2,2 C -0,6 C 85 % 1020,9 hPa 0,0 l/m 0 min 0 min 0 W/m 4,2 km/h (1 Bft)
27.02.2015 21:54 2,2 C -0,6 C 85 % 1021,0 hPa 0,0 l/m 0 min 0 min 0 W/m 6,3 km/h (2 Bft)
27.02.2015 21:56 2,1 C -0,6 C 85 % 1020,9 hPa 0,0 l/m 0 min 0 min 0 W/m 6,3 km/h (2 Bft)
27.02.2015 21:58 2,1 C -0,6 C 85 % 1020,9 hPa 0,0 l/m 0 min 0 min 0 W/m 6,3 km/h (2 Bft)
27.02.2015 22:00 2,1 C -0,6 C 85 % 1020,9 hPa 0,0 l/m 0 min 0 min 0 W/m 6,3 km/h (2 Bft)
27.02.2015 22:02 2,1 C -0,6 C 85 % 1020,9 hPa 0,0 l/m 0 min 0 min 0 W/m 8,4 km/h (2 Bft)
27.02.2015 22:04 2,0 C -0,6 C 85 % 1020,8 hPa 0,0 l/m 0 min 0 min 0 W/m 8,4 km/h (2 Bft)
27.02.2015 22:06 2,0 C -0,6 C 85 % 1020,9 hPa 0,0 l/m 0 min 0 min 0 W/m 8,4 km/h (2 Bft)
27.02.2015 22:08 1,9 C -0,6 C 85 % 1020,9 hPa 0,0 l/m 0 min 0 min 0 W/m 4,2 km/h (1 Bft)
27.02.2015 22:10 1,9 C -0,6 C 85 % 1020,9 hPa 0,0 l/m 0 min 0 min 0 W/m 6,3 km/h (2 Bft)
27.02.2015 22:12 1,9 C -0,6 C 85 % 1020,9 hPa 0,0 l/m 0 min 0 min 0 W/m 8,4 km/h (2 Bft)
27.02.2015 22:14 1,9 C -0,6 C 85 % 1020,9 hPa 0,0 l/m 0 min 0 min 0 W/m 6,3 km/h (2 Bft)
27.02.2015 22:16 1,9 C -0,6 C 86 % 1020,9 hPa 0,0 l/m 0 min 0 min 0 W/m 6,3 km/h (2 Bft)
27.02.2015 22:18 1,8 C -0,6 C 86 % 1020,9 hPa 0,0 l/m 0 min 0 min 0 W/m 4,2 km/h (1 Bft)
27.02.2015 22:20 1,8 C -0,6 C 86 % 1020,9 hPa 0,0 l/m 0 min 0 min 0 W/m 6,3 km/h (2 Bft)
27.02.2015 22:22 1,8 C -0,6 C 86 % 1021,0 hPa 0,0 l/m 0 min 0 min 0 W/m 6,3 km/h (2 Bft)
27.02.2015 22:24 1,8 C -0,6 C 86 % 1021,0 hPa 0,0 l/m 0 min 0 min 0 W/m 6,3 km/h (2 Bft)
27.02.2015 22:26 1,8 C -0,6 C 86 % 1021,1 hPa 0,0 l/m 0 min 0 min 0 W/m 4,2 km/h (1 Bft)
27.02.2015 22:28 1,8 C -0,6 C 86 % 1021,1 hPa 0,0 l/m 0 min 0 min 0 W/m 4,2 km/h (1 Bft)
27.02.2015 22:30 1,7 C -0,6 C 86 % 1021,1 hPa 0,0 l/m 0 min 0 min 0 W/m 4,2 km/h (1 Bft)
27.02.2015 22:32 1,7 C -0,6 C 86 % 1021,1 hPa 0,0 l/m 0 min 0 min 0 W/m 4,2 km/h (1 Bft)
27.02.2015 22:34 1,7 C -0,6 C 86 % 1021,1 hPa 0,0 l/m 0 min 0 min 0 W/m 4,2 km/h (1 Bft)
27.02.2015 22:36 1,7 C -0,6 C 87 % 1021,2 hPa 0,0 l/m 0 min 0 min 0 W/m 8,4 km/h (2 Bft)
27.02.2015 22:38 1,7 C -0,6 C 87 % 1021,1 hPa 0,0 l/m 0 min 0 min 0 W/m 6,3 km/h (2 Bft)
27.02.2015 22:40 1,7 C -0,6 C 87 % 1021,1 hPa 0,0 l/m 0 min 0 min 0 W/m 4,2 km/h (1 Bft)
27.02.2015 22:42 1,6 C -0,6 C 87 % 1021,2 hPa 0,0 l/m 0 min 0 min 0 W/m 6,3 km/h (2 Bft)
27.02.2015 22:44 1,6 C -0,6 C 87 % 1021,2 hPa 0,0 l/m 0 min 0 min 0 W/m 6,3 km/h (2 Bft)
27.02.2015 22:46 1,6 C -0,6 C 87 % 1021,2 hPa 0,0 l/m 0 min 0 min 0 W/m 6,3 km/h (2 Bft)
27.02.2015 22:48 1,6 C -0,6 C 87 % 1021,2 hPa 0,0 l/m 0 min 0 min 0 W/m 8,4 km/h (2 Bft)
27.02.2015 22:50 1,6 C -0,6 C 87 % 1021,2 hPa 0,0 l/m 0 min 0 min 0 W/m 6,3 km/h (2 Bft)
27.02.2015 22:52 1,5 C -0,6 C 87 % 1021,2 hPa 0,0 l/m 0 min 0 min 0 W/m 8,4 km/h (2 Bft)
27.02.2015 22:54 1,5 C -0,6 C 87 % 1021,2 hPa 0,0 l/m 0 min 0 min 0 W/m 6,3 km/h (2 Bft)
27.02.2015 22:56 1,4 C -0,6 C 87 % 1021,2 hPa 0,0 l/m 0 min 0 min 0 W/m 6,3 km/h (2 Bft)
27.02.2015 22:58 1,4 C -0,6 C 87 % 1021,2 hPa 0,0 l/m 0 min 0 min 0 W/m 6,3 km/h (2 Bft)
27.02.2015 23:00 1,4 C -0,6 C 87 % 1021,2 hPa 0,0 l/m 0 min 0 min 0 W/m 8,4 km/h (2 Bft)
27.02.2015 23:02 1,4 C -0,6 C 87 % 1021,3 hPa 0,0 l/m 0 min 0 min 0 W/m 6,3 km/h (2 Bft)
27.02.2015 23:04 1,4 C -0,6 C 87 % 1021,2 hPa 0,0 l/m 0 min 0 min 0 W/m 4,2 km/h (1 Bft)
27.02.2015 23:06 1,4 C -1,1 C 87 % 1021,2 hPa 0,0 l/m 0 min 0 min 0 W/m 4,2 km/h (1 Bft)
27.02.2015 23:08 1,3 C -1,1 C 87 % 1021,3 hPa 0,0 l/m 0 min 0 min 0 W/m 4,2 km/h (1 Bft)
27.02.2015 23:10 1,3 C -1,1 C 87 % 1021,2 hPa 0,0 l/m 0 min 0 min 0 W/m 4,2 km/h (1 Bft)
27.02.2015 23:12 1,3 C -1,1 C 87 % 1021,2 hPa 0,0 l/m 0 min 0 min 0 W/m 6,3 km/h (2 Bft)
27.02.2015 23:14 1,3 C -1,1 C 87 % 1021,2 hPa 0,0 l/m 0 min 0 min 0 W/m 8,4 km/h (2 Bft)
27.02.2015 23:16 1,2 C -1,1 C 88 % 1021,1 hPa 0,0 l/m 0 min 0 min 0 W/m 4,2 km/h (1 Bft)
27.02.2015 23:18 1,2 C -1,1 C 88 % 1021,2 hPa 0,0 l/m 0 min 0 min 0 W/m 4,2 km/h (1 Bft)
27.02.2015 23:20 1,2 C -1,1 C 88 % 1021,2 hPa 0,0 l/m 0 min 0 min 0 W/m 4,2 km/h (1 Bft)
27.02.2015 23:22 1,2 C -1,1 C 88 % 1021,2 hPa 0,0 l/m 0 min 0 min 0 W/m 4,2 km/h (1 Bft)
27.02.2015 23:24 1,2 C -1,1 C 88 % 1021,1 hPa 0,0 l/m 0 min 0 min 0 W/m 4,2 km/h (1 Bft)
27.02.2015 23:26 1,1 C -1,1 C 88 % 1021,0 hPa 0,0 l/m 0 min 0 min 0 W/m 4,2 km/h (1 Bft)
27.02.2015 23:28 1,1 C -1,1 C 88 % 1020,9 hPa 0,0 l/m 0 min 0 min 0 W/m 4,2 km/h (1 Bft)
27.02.2015 23:30 1,1 C -1,7 C 88 % 1020,9 hPa 0,0 l/m 0 min 0 min 0 W/m 4,2 km/h (1 Bft)
27.02.2015 23:32 1,0 C -1,7 C 88 % 1020,9 hPa 0,0 l/m 0 min 0 min 0 W/m 2,1 km/h (1 Bft)
27.02.2015 23:34 1,0 C -1,7 C 88 % 1020,9 hPa 0,0 l/m 0 min 0 min 0 W/m 4,2 km/h (1 Bft)
27.02.2015 23:36 0,9 C -1,7 C 88 % 1020,9 hPa 0,0 l/m 0 min 0 min 0 W/m 4,2 km/h (1 Bft)
27.02.2015 23:38 0,9 C -1,7 C 88 % 1020,9 hPa 0,0 l/m 0 min 0 min 0 W/m 4,2 km/h (1 Bft)
27.02.2015 23:40 0,9 C -1,7 C 88 % 1020,9 hPa 0,0 l/m 0 min 0 min 0 W/m 4,2 km/h (1 Bft)
27.02.2015 23:42 0,9 C -1,7 C 88 % 1020,8 hPa 0,0 l/m 0 min 0 min 0 W/m 4,2 km/h (1 Bft)
27.02.2015 23:44 0,8 C -1,7 C 88 % 1020,8 hPa 0,0 l/m 0 min 0 min 0 W/m 4,2 km/h (1 Bft)
27.02.2015 23:46 0,8 C -1,7 C 88 % 1020,8 hPa 0,0 l/m 0 min 0 min 0 W/m 4,2 km/h (1 Bft)
27.02.2015 23:48 0,8 C -1,7 C 88 % 1020,8 hPa 0,0 l/m 0 min 0 min 0 W/m 4,2 km/h (1 Bft)
27.02.2015 23:50 0,8 C -1,7 C 88 % 1020,6 hPa 0,0 l/m 0 min 0 min 0 W/m 6,3 km/h (2 Bft)
27.02.2015 23:52 0,8 C -1,7 C 89 % 1020,6 hPa 0,0 l/m 0 min 0 min 0 W/m 4,2 km/h (1 Bft)
27.02.2015 23:54 0,7 C -1,7 C 89 % 1020,7 hPa 0,0 l/m 0 min 0 min 0 W/m 4,2 km/h (1 Bft)
27.02.2015 23:56 0,7 C -1,7 C 89 % 1020,6 hPa 0,0 l/m 0 min 0 min 0 W/m 4,2 km/h (1 Bft)
27.02.2015 23:58 0,7 C -1,7 C 89 % 1020,6 hPa 0,0 l/m 0 min 0 min 0 W/m 2,1 km/h (1 Bft)
_ Min-Zeit 23:54 23:30 15:46 01:28 - - - - 02:42
Minimum _ 0,7 C -1,7 C 63 % 1007,2 hPa - - - - 2,1 km/h (1 Bft)
_ Max-Zeit 15:32 14:34 00:00 23:02 00:00 11:42 00:00 13:06 03:28
Maximum _ 8,6 C 8,3 C 98 % 1021,3 hPa 0,2 l/m 2 min 2 min 678 W/m 50,2 km/h
N (7 Bft)
Durchschnitt _ 5,1 C 3,6 C 87 % 1014,4 hPa #8,4 l/m #3:24 h #6:58 h 178 W/m 17,0 km/h (3 Bft)
© 2015 W. Hausmann